Boston Pilot Mystic — VHF20 — position and weather

sailwx.info

Track history (hours):
 
Tides and Currents Weather Stations Pressure Air Temp Water Temp Dewpoint Dewpoint Depression Visibility Wind Speed Wind Dir Waves Ship Positions

Boston Pilot Mystic

Last reported at 2017-Oct-20 12:30 UTC. Time now 2017-Oct-20 12:43 UTC.
Position N 42°22' W 071°02'.

Length 16 m; draft 1.5 m.

Type: Pilot. MMSI: 367029020.

Date/timePositionNaut miles runAvg speedWind from/ knotsBaromVisibWave heightAir tempDewpointWater temp
2017-Oct-20 12:30N 42°22' W 071°02'0 0.1
2017-Oct-20 12:10N 42°22' W 071°02'0 0.1
2017-Oct-20 12:00N 42°22' W 071°02'182.2
2017-Oct-20 11:59N 42°22' W 071°03'0 0.7
2017-Oct-20 11:30N 42°22' W 071°03'116.2
2017-Oct-20 11:28N 42°22' W 071°02'0 0.0
2017-Oct-20 10:57N 42°22' W 071°02'0 3.1
2017-Oct-20 10:52N 42°22' W 071°02'4 9.8
2017-Oct-20 10:30N 42°20' W 070°57'4324.9
2017-Oct-20 10:29N 42°22' W 071°02'918.7
2017-Oct-20 10:00N 42°24' W 070°50'94046.6
2017-Oct-20 10:00N 42°22' W 071°02'0 0.0
2017-Oct-20 09:30N 42°22' W 071°02'9861.7
2017-Oct-20 09:29N 42°24' W 070°50'3 5.9
2017-Oct-20 09:01N 42°23' W 070°53'73387.4
2017-Oct-20 09:00N 42°22' W 071°02'0 0.0
2017-Oct-20 08:30N 42°22' W 071°02'1221.7
2017-Oct-20 08:30N 42°21' W 071°02'1 2.4
2017-Oct-20 08:00N 42°22' W 071°02'0 6.6
2017-Oct-20 08:00N 42°22' W 071°02'0 0.0
2017-Oct-20 07:30N 42°22' W 071°02'021.6
2017-Oct-20 07:30N 42°22' W 071°02'0 0.0
2017-Oct-20 07:01N 42°22' W 071°02'013.0
2017-Oct-20 07:00N 42°22' W 071°02'0 0.0
2017-Oct-20 06:30N 42°22' W 071°02'014.4
2017-Oct-20 06:30N 42°22' W 071°02'0 0.0
2017-Oct-20 06:00N 42°22' W 071°02'013.0
2017-Oct-20 06:00N 42°22' W 071°02'0 0.0
2017-Oct-20 05:30N 42°22' W 071°02'016.2
2017-Oct-20 05:30N 42°22' W 071°02'0 0.0
2017-Oct-20 05:00N 42°22' W 071°02'0 8.6
2017-Oct-20 05:00N 42°22' W 071°02'0 0.0
2017-Oct-20 04:30N 42°22' W 071°02'016.2
2017-Oct-20 04:30N 42°22' W 071°02'0 0.0
2017-Oct-20 04:00N 42°22' W 071°02'010.8
2017-Oct-20 04:00N 42°22' W 071°02'0 0.0
2017-Oct-20 03:30N 42°22' W 071°02'043.2
2017-Oct-20 03:30N 42°22' W 071°02'5 9.8
2017-Oct-20 03:00N 42°22' W 070°55'58850.9
2017-Oct-20 03:00N 42°22' W 071°02'4 8.8
2017-Oct-20 02:30N 42°21' W 070°56'47937.0
2017-Oct-20 02:30N 42°22' W 071°02'1 2.0
2017-Oct-20 02:00N 42°21' W 071°01'11780.9
2017-Oct-20 02:00N 42°22' W 071°02'0 0.0
2017-Oct-20 01:30N 42°22' W 071°02'0 0.4
2017-Oct-20 01:29N 42°22' W 071°02'3 5.6
2017-Oct-20 01:01N 42°20' W 070°59'31614.9
2017-Oct-20 01:00N 42°22' W 071°02'0 0.0
2017-Oct-20 00:31N 42°22' W 071°02'6486.5
2017-Oct-20 00:30N 42°23' W 070°53'611.7
2017-Oct-20 00:01N 42°20' W 071°00'2356.2
2017-Oct-20 00:00N 42°22' W 071°02'0 0.0
2017-Oct-19 23:30N 42°22' W 071°02'612.0
2017-Oct-19 23:01N 42°23' W 070°54'62153.8
2017-Oct-19 23:00N 42°22' W 071°02'1 2.9
2017-Oct-19 22:31N 42°21' W 071°01'1518.9
2017-Oct-19 22:30N 42°22' W 071°02'0 0.0
2017-Oct-19 22:00N 42°22' W 071°02'021.6
2017-Oct-19 22:00N 42°22' W 071°02'0 0.0
2017-Oct-19 21:31N 42°22' W 071°02'0 4.8
2017-Oct-19 21:30N 42°22' W 071°02'0 0.0
2017-Oct-19 21:00N 42°22' W 071°02'0 2.7
2017-Oct-19 21:00N 42°22' W 071°02'0 0.0
2017-Oct-19 20:31N 42°22' W 071°02'0 5.0
2017-Oct-19 20:30N 42°22' W 071°02'0 0.0
2017-Oct-19 20:00N 42°22' W 071°02'010.8
2017-Oct-19 20:00N 42°22' W 071°02'0 0.0
2017-Oct-19 19:31N 42°22' W 071°02'0 8.1
2017-Oct-19 19:30N 42°22' W 071°02'0 0.0
2017-Oct-19 19:01N 42°22' W 071°02'0 5.4
2017-Oct-19 19:00N 42°22' W 071°02'0 0.0
2017-Oct-19 18:31N 42°22' W 071°02'0 7.2
2017-Oct-19 18:30N 42°22' W 071°02'0 0.0
2017-Oct-19 18:01N 42°22' W 071°02'0 7.2
2017-Oct-19 18:00N 42°22' W 071°02'0 0.0
2017-Oct-19 17:31N 42°22' W 071°02'010.8
2017-Oct-19 17:30N 42°22' W 071°02'0 0.0
2017-Oct-19 17:00N 42°22' W 071°02'0 9.3
2017-Oct-19 17:00N 42°22' W 071°02'0 0.0
2017-Oct-19 16:31N 42°22' W 071°02'0 5.4
2017-Oct-19 16:30N 42°22' W 071°02'0 0.0
2017-Oct-19 16:01N 42°22' W 071°02'0 0.0
2017-Oct-19 15:30N 42°22' W 071°02'6923.4
2017-Oct-19 15:30N 42°22' W 070°54'4 7.7
2017-Oct-19 15:00N 42°20' W 070°58'31797.6
2017-Oct-19 15:00N 42°22' W 071°02'3 6.3
2017-Oct-19 14:30N 42°21' W 070°58'3432.8
2017-Oct-19 14:30N 42°22' W 071°02'3 6.3
2017-Oct-19 14:00N 42°20' W 070°58'32770.8
2017-Oct-19 14:00N 42°22' W 071°02'0 0.0
2017-Oct-19 13:31N 42°22' W 071°02'54281.6
2017-Oct-19 13:30N 42°22' W 070°55'5 9.5
2017-Oct-19 13:01N 42°22' W 071°02'98112.0
2017-Oct-19 13:00N 42°24' W 070°50'918.1
2017-Oct-19 12:31N 42°22' W 071°02'58276.4
2017-Oct-19 12:30N 42°21' W 070°56'5 9.2
2017-Oct-19 12:01N 42°22' W 071°02'0 0.6
2017-Oct-19 12:00N 42°22' W 071°02'0 0.0
2017-Oct-19 11:31N 42°22' W 071°02'0 0.8
2017-Oct-19 11:30N 42°22' W 071°02'4 7.4
2017-Oct-19 11:01N 42°20' W 070°57'41312.6
2017-Oct-19 11:00N 42°22' W 071°02'919.1
2017-Oct-19 10:31N 42°24' W 070°49'94271.6
2017-Oct-19 10:30N 42°22' W 071°02'4 7.3
2017-Oct-19 10:00N 42°20' W 070°57'413137.0
2017-Oct-19 10:00N 42°22' W 071°02'0 0.0
2017-Oct-19 09:30N 42°22' W 071°02'0 7.2
2017-Oct-19 09:30N 42°22' W 071°02'0 0.0
2017-Oct-19 09:01N 42°22' W 071°02'064.8
2017-Oct-19 09:01N 42°22' W 071°02'0 0.0
2017-Oct-19 08:30N 42°22' W 071°02'0 6.6
2017-Oct-19 08:30N 42°22' W 071°02'0 0.0
2017-Oct-19 08:01N 42°22' W 071°02'010.8
2017-Oct-19 08:00N 42°22' W 071°02'0 0.0
2017-Oct-19 07:30N 42°22' W 071°02'043.2
2017-Oct-19 07:30N 42°22' W 071°02'0 0.0
2017-Oct-19 07:00N 42°22' W 071°02'0 7.2
2017-Oct-19 07:00N 42°22' W 071°02'0 0.0
2017-Oct-19 06:31N 42°22' W 071°02'0 4.3
2017-Oct-19 06:30N 42°22' W 071°02'0 0.0
2017-Oct-19 06:01N 42°22' W 071°02'0 0.0
2017-Oct-19 05:31N 42°22' W 071°02'023.0
2017-Oct-19 05:30N 42°22' W 071°02'0 0.0
2017-Oct-19 05:01N 42°22' W 071°02'0 8.1
2017-Oct-19 05:00N 42°22' W 071°02'0 0.0
2017-Oct-19 04:30N 42°22' W 071°02'010.8
2017-Oct-19 04:30N 42°22' W 071°02'0 0.0
2017-Oct-19 04:00N 42°22' W 071°02'011.5
2017-Oct-19 04:00N 42°22' W 071°02'0 0.0
2017-Oct-19 03:30N 42°22' W 071°02'0 8.6
2017-Oct-19 03:30N 42°22' W 071°02'0 0.0
2017-Oct-19 03:00N 42°22' W 071°02'010.8
2017-Oct-19 03:00N 42°22' W 071°02'0 0.0
2017-Oct-19 02:30N 42°22' W 071°02'0 6.2
2017-Oct-19 02:30N 42°22' W 071°02'0 0.0
2017-Oct-19 02:00N 42°22' W 071°02'0 7.2
2017-Oct-19 02:00N 42°22' W 071°02'0 0.0
2017-Oct-19 01:30N 42°22' W 071°02'013.0
2017-Oct-19 01:30N 42°22' W 071°02'0 0.0
2017-Oct-19 01:00N 42°22' W 071°02'0 5.4
2017-Oct-19 01:00N 42°22' W 071°02'0 0.0
2017-Oct-19 00:31N 42°22' W 071°02'0 5.0
2017-Oct-19 00:30N 42°22' W 071°02'0 0.0
2017-Oct-19 00:01N 42°22' W 071°02'47692.1
2017-Oct-19 00:00N 42°21' W 070°56'1 2.6
2017-Oct-18 23:30N 42°22' W 070°55'52180.0
2017-Oct-18 23:30N 42°22' W 071°02'1 2.5
2017-Oct-18 23:00N 42°21' W 071°01'14548.7
2017-Oct-18 23:00N 42°22' W 071°02'1 2.3
2017-Oct-18 22:31N 42°21' W 071°02'1525.8
2017-Oct-18 22:30N 42°22' W 071°02'611.5
2017-Oct-18 22:00N 42°22' W 070°54'63445.4
2017-Oct-18 22:00N 42°22' W 071°02'2 4.8
2017-Oct-18 21:31N 42°20' W 070°60'21064.2
2017-Oct-18 21:30N 42°22' W 071°02'0 0.0
2017-Oct-18 21:01N 42°22' W 071°02'0 3.9
2017-Oct-18 21:00N 42°22' W 071°02'0 0.0
2017-Oct-18 20:30N 42°22' W 071°02'0 3.6
2017-Oct-18 20:30N 42°22' W 071°02'0 0.0
2017-Oct-18 20:00N 42°22' W 071°02'010.8
2017-Oct-18 20:00N 42°22' W 071°02'0 0.0
2017-Oct-18 19:31N 42°22' W 071°02'0 8.1
2017-Oct-18 19:30N 42°22' W 071°02'0 0.0
2017-Oct-18 19:00N 42°22' W 071°02'021.6
2017-Oct-18 19:00N 42°22' W 071°02'0 0.0
2017-Oct-18 18:30N 42°22' W 071°02'0 8.3
2017-Oct-18 18:30N 42°22' W 071°02'511.0
2017-Oct-18 18:00N 42°22' W 070°55'53938.7
2017-Oct-18 18:00N 42°22' W 071°02'3 6.8
2017-Oct-18 17:31N 42°20' W 070°58'31742.3
2017-Oct-18 17:30N 42°22' W 071°02'1 1.1
2017-Oct-18 17:01N 42°21' W 071°01'1226.7
2017-Oct-18 17:00N 42°22' W 071°02'1 2.7
2017-Oct-18 16:30N 42°23' W 071°03'1605.0
2017-Oct-18 16:30N 42°22' W 071°02'1 2.7
2017-Oct-18 16:01N 42°23' W 071°03'1695.3
2017-Oct-18 16:00N 42°22' W 071°02'1 2.7
2017-Oct-18 15:30N 42°23' W 071°03'1303.1
2017-Oct-18 15:30N 42°22' W 071°02'0 0.0
2017-Oct-18 15:00N 42°22' W 071°02'0 6.7
2017-Oct-18 15:00N 42°22' W 071°02'0 0.0
2017-Oct-18 14:00N 42°22' W 071°02'0 6.7
2017-Oct-18 14:00N 42°22' W 071°02'2 4.8
2017-Oct-18 13:30N 42°20' W 070°59'24316.7
2017-Oct-18 13:30N 42°22' W 071°02'918.5
2017-Oct-18 13:01N 42°24' W 070°50'93691.9
2017-Oct-18 13:00N 42°22' W 071°02'4 9.0
2017-Oct-18 12:30N 42°21' W 070°56'42684.0
2017-Oct-18 12:30N 42°22' W 071°02'0 0.0
2017-Oct-18 12:00N 42°22' W 071°02'0 0.0
2017-Oct-18 11:31N 42°22' W 071°02'0 2.2
2017-Oct-18 11:30N 42°22' W 071°02'4 8.3
2017-Oct-18 11:01N 42°21' W 070°57'41651.5
2017-Oct-18 11:00N 42°22' W 071°02'919.0
2017-Oct-18 10:31N 42°25' W 070°50'93784.3
2017-Oct-18 10:30N 42°22' W 071°02'917.9
2017-Oct-18 10:00N 42°23' W 070°50'96431.1
2017-Oct-18 10:00N 42°22' W 071°02'817.0
2017-Oct-18 09:30N 42°24' W 070°51'810185.9
2017-Oct-18 09:30N 42°22' W 071°02'4 8.9
2017-Oct-18 09:00N 42°21' W 070°56'42666.9
2017-Oct-18 09:00N 42°22' W 071°02'1 2.1
2017-Oct-18 08:30N 42°21' W 071°01'1940.2
2017-Oct-18 08:30N 42°22' W 071°02'1 2.2
2017-Oct-18 08:00N 42°21' W 071°01'1782.3
2017-Oct-18 08:00N 42°22' W 071°02'0 0.0
2017-Oct-18 07:30N 42°22' W 071°02'0 6.2
2017-Oct-18 07:30N 42°22' W 071°02'0 0.0
2017-Oct-18 07:00N 42°22' W 071°02'0 2.5
2017-Oct-18 07:00N 42°22' W 071°02'0 0.0
2017-Oct-18 06:30N 42°22' W 071°02'0 7.2
2017-Oct-18 06:30N 42°22' W 071°02'0 0.0
2017-Oct-18 06:00N 42°22' W 071°02'016.2
2017-Oct-18 06:00N 42°22' W 071°02'0 0.0
2017-Oct-18 05:30N 42°22' W 071°02'021.6
2017-Oct-18 05:30N 42°22' W 071°02'0 0.0
2017-Oct-18 05:00N 42°22' W 071°02'016.2
2017-Oct-18 05:00N 42°22' W 071°02'0 0.0
2017-Oct-18 04:30N 42°22' W 071°02'013.0
2017-Oct-18 04:30N 42°22' W 071°02'0 0.0
2017-Oct-18 04:00N 42°22' W 071°02'0 5.0
2017-Oct-18 04:00N 42°22' W 071°02'0 0.0
2017-Oct-18 03:30N 42°22' W 071°02'016.2
2017-Oct-18 03:30N 42°22' W 071°02'0 0.0
2017-Oct-18 03:00N 42°22' W 071°02'013.0
2017-Oct-18 03:00N 42°22' W 071°02'0 0.0
2017-Oct-18 02:30N 42°22' W 071°02'0 2.0
2017-Oct-18 02:30N 42°22' W 071°02'0 0.0
2017-Oct-18 02:00N 42°22' W 071°02'013.0
2017-Oct-18 02:00N 42°22' W 071°02'0 0.0
2017-Oct-18 01:30N 42°22' W 071°02'1301.0
2017-Oct-18 01:30N 42°21' W 071°02'611.6
2017-Oct-18 01:01N 42°22' W 070°55'5656.9
2017-Oct-18 01:00N 42°22' W 071°02'5 9.4
2017-Oct-18 00:30N 42°21' W 070°56'58343.8
2017-Oct-18 00:30N 42°22' W 071°02'611.6
2017-Oct-18 00:00N 42°22' W 070°54'620751.6
2017-Oct-18 00:00N 42°22' W 071°02'4 7.4
2017-Oct-17 23:30N 42°20' W 070°57'44426.5
2017-Oct-17 23:30N 42°22' W 071°02'0 0.0
2017-Oct-17 23:01N 42°22' W 071°02'0 2.3
2017-Oct-17 23:00N 42°22' W 071°02'0 0.0
2017-Oct-17 22:30N 42°22' W 071°02'0 6.2
2017-Oct-17 22:30N 42°22' W 071°02'0 0.0
2017-Oct-17 22:00N 42°22' W 071°02'0 9.5
2017-Oct-17 22:00N 42°22' W 071°02'0 0.0
2017-Oct-17 21:30N 42°22' W 071°02'021.6
2017-Oct-17 21:30N 42°22' W 071°02'0 0.0
2017-Oct-17 21:01N 42°22' W 071°02'0 5.4
2017-Oct-17 21:00N 42°22' W 071°02'0 0.0
2017-Oct-17 20:31N 42°22' W 071°02'0 7.4
2017-Oct-17 20:30N 42°22' W 071°02'0 0.0
2017-Oct-17 20:00N 42°22' W 071°02'0 8.1
2017-Oct-17 20:00N 42°22' W 071°02'0 0.0
2017-Oct-17 19:30N 42°22' W 071°02'0 9.3
2017-Oct-17 19:30N 42°22' W 071°02'0 0.0
2017-Oct-17 19:00N 42°22' W 071°02'032.4
2017-Oct-17 19:00N 42°22' W 071°02'0 0.0
2017-Oct-17 18:30N 42°22' W 071°02'0 9.3
2017-Oct-17 18:30N 42°22' W 071°02'0 0.0
2017-Oct-17 18:01N 42°22' W 071°02'0 6.5
2017-Oct-17 18:00N 42°22' W 071°02'0 0.0
2017-Oct-17 17:30N 42°22' W 071°02'0 6.2
2017-Oct-17 17:30N 42°22' W 071°02'0 0.0
2017-Oct-17 17:00N 42°22' W 071°02'011.1
2017-Oct-17 17:00N 42°22' W 071°02'0 0.0
2017-Oct-17 16:30N 42°22' W 071°02'0 6.6
2017-Oct-17 16:30N 42°22' W 071°02'0 0.0
2017-Oct-17 16:00N 42°22' W 071°02'0 9.3
2017-Oct-17 16:00N 42°22' W 071°02'0 0.0
2017-Oct-17 15:30N 42°22' W 071°02'032.4
2017-Oct-17 15:30N 42°22' W 071°02'0 0.0
2017-Oct-17 15:01N 42°22' W 071°02'0 3.6
2017-Oct-17 15:00N 42°22' W 071°02'0 0.0
2017-Oct-17 14:31N 42°22' W 071°02'0 7.2
2017-Oct-17 14:30N 42°22' W 071°02'0 0.0
2017-Oct-17 14:00N 42°22' W 071°02'010.8
2017-Oct-17 14:00N 42°22' W 071°02'0 0.0
2017-Oct-17 13:30N 42°22' W 071°02'013.0
2017-Oct-17 13:30N 42°22' W 071°02'0 0.0
2017-Oct-17 13:01N 42°22' W 071°02'0 7.2
2017-Oct-17 13:00N 42°22' W 071°02'3 5.9
2017-Oct-17 12:30N 42°20' W 070°58'32132.1
2017-Oct-17 12:30N 42°22' W 071°02'713.7
2017-Oct-17 12:01N 42°23' W 070°53'7847.3
2017-Oct-17 12:00N 42°22' W 071°02'918.9
2017-Oct-17 11:31N 42°24' W 070°50'93343.9
2017-Oct-17 11:30N 42°22' W 071°02'611.9
2017-Oct-17 11:00N 42°22' W 070°54'61335.4
2017-Oct-17 11:00N 42°22' W 071°02'1 2.5
2017-Oct-17 10:31N 42°21' W 071°01'1500.3
2017-Oct-17 10:30N 42°22' W 071°02'4 8.6
2017-Oct-17 10:01N 42°21' W 070°56'42190.4
2017-Oct-17 10:00N 42°22' W 071°02'1020.3
2017-Oct-17 09:30N 42°24' W 070°48'107297.4
2017-Oct-17 09:30N 42°22' W 071°02'510.0
2017-Oct-17 09:01N 42°22' W 070°55'5895.5
2017-Oct-17 09:00N 42°22' W 071°02'0 0.0
2017-Oct-17 08:30N 42°22' W 071°02'064.8
2017-Oct-17 08:30N 42°22' W 071°02'0 0.0
2017-Oct-17 08:00N 42°22' W 071°02'0 4.8
2017-Oct-17 08:00N 42°22' W 071°02'0 0.0
2017-Oct-17 07:31N 42°22' W 071°02'0 6.2
2017-Oct-17 07:30N 42°22' W 071°02'0 0.0
2017-Oct-17 07:00N 42°22' W 071°02'046.1
2017-Oct-17 07:00N 42°22' W 071°02'0 0.0
2017-Oct-17 06:30N 42°22' W 071°02'0 3.3
2017-Oct-17 06:30N 42°22' W 071°02'0 0.0
2017-Oct-17 06:00N 42°22' W 071°02'0 4.6
2017-Oct-17 06:00N 42°22' W 071°02'0 0.0
2017-Oct-17 05:30N 42°22' W 071°02'0 5.8
2017-Oct-17 05:30N 42°22' W 071°02'0 0.0
2017-Oct-17 05:00N 42°22' W 071°02'010.8
2017-Oct-17 05:00N 42°22' W 071°02'0 0.0
2017-Oct-17 04:30N 42°22' W 071°02'032.4
2017-Oct-17 04:30N 42°22' W 071°02'0 0.0
2017-Oct-17 04:00N 42°22' W 071°02'0 3.0
2017-Oct-17 04:00N 42°22' W 071°02'0 0.0
2017-Oct-17 03:30N 42°22' W 071°02'0 3.4
2017-Oct-17 03:30N 42°22' W 071°02'0 0.0
2017-Oct-17 03:00N 42°22' W 071°02'032.4
2017-Oct-17 03:00N 42°22' W 071°02'0 0.0
2017-Oct-17 02:30N 42°22' W 071°02'032.4
2017-Oct-17 02:30N 42°22' W 071°02'0 0.0
2017-Oct-17 02:00N 42°22' W 071°02'046.1
2017-Oct-17 02:00N 42°22' W 071°02'0 0.0
2017-Oct-17 01:30N 42°22' W 071°02'0 5.0
2017-Oct-17 01:30N 42°22' W 071°02'5 9.3
2017-Oct-17 01:01N 42°21' W 070°56'52065.2
2017-Oct-17 01:00N 42°22' W 071°02'0 0.0
2017-Oct-17 00:31N 42°22' W 071°02'611.3
2017-Oct-17 00:00N 42°24' W 070°55'62930.6
2017-Oct-17 00:00N 42°22' W 071°02'0 0.0
2017-Oct-16 23:31N 42°22' W 071°02'6103.2
2017-Oct-16 23:27N 42°25' W 070°55'4 9.8
2017-Oct-16 23:00N 42°21' W 070°56'4859.0
2017-Oct-16 23:00N 42°22' W 071°02'2 3.0
2017-Oct-16 22:31N 42°21' W 071°01'2285.7
2017-Oct-16 22:30N 42°22' W 071°02'4 8.6
2017-Oct-16 22:01N 42°20' W 070°56'41691.9
2017-Oct-16 22:00N 42°22' W 071°02'0 0.4
2017-Oct-16 21:30N 42°22' W 071°02'0242.4
2017-Oct-16 21:30N 42°22' W 071°02'0 0.0
2017-Oct-16 21:00N 42°22' W 071°02'0 0.0
2017-Oct-16 21:00N 42°22' W 071°02'0 0.0
2017-Oct-16 20:31N 42°22' W 071°02'0 4.5
2017-Oct-16 20:30N 42°22' W 071°02'0 0.0
2017-Oct-16 20:00N 42°22' W 071°02'0 1.5
2017-Oct-16 20:00N 42°22' W 071°02'0 0.8
2017-Oct-16 19:30N 42°21' W 071°02'0348.2
2017-Oct-16 19:30N 42°22' W 071°02'0 0.0
2017-Oct-16 19:01N 42°22' W 071°02'0 9.3
2017-Oct-16 19:00N 42°22' W 071°02'0 0.0
2017-Oct-16 18:30N 42°22' W 071°02'0 5.0
2017-Oct-16 18:30N 42°22' W 071°02'0 0.0
2017-Oct-16 18:00N 42°22' W 071°02'0 9.3
2017-Oct-16 18:00N 42°22' W 071°02'0 0.0
2017-Oct-16 17:30N 42°22' W 071°02'021.6
2017-Oct-16 17:30N 42°22' W 071°02'0 0.0
2017-Oct-16 17:00N 42°22' W 071°02'064.8
2017-Oct-16 17:00N 42°22' W 071°02'0 0.0
2017-Oct-16 16:30N 42°22' W 071°02'014.4
2017-Oct-16 16:30N 42°22' W 071°02'0 0.0
2017-Oct-16 16:00N 42°22' W 071°02'021.6
2017-Oct-16 16:00N 42°22' W 071°02'1 2.3
2017-Oct-16 15:30N 42°21' W 071°02'14191.3
2017-Oct-16 15:30N 42°22' W 071°02'1 2.4
2017-Oct-16 15:00N 42°21' W 071°02'1707.8
2017-Oct-16 15:00N 42°22' W 071°02'0 0.0
2017-Oct-16 14:30N 42°22' W 071°02'1 2.8
2017-Oct-16 14:00N 42°21' W 071°01'714.5
2017-Oct-16 13:30N 42°23' W 070°52'81045.9
2017-Oct-16 13:30N 42°22' W 071°02'815.2
2017-Oct-16 13:01N 42°22' W 070°52'8575.0
2017-Oct-16 13:00N 42°22' W 071°02'0 0.0
2017-Oct-16 12:31N 42°22' W 071°02'621755.5
2017-Oct-16 12:31N 42°22' W 070°54'3 6.2
2017-Oct-16 12:01N 42°24' W 070°50'94031.8
2017-Oct-16 12:00N 42°22' W 071°02'4 9.0
2017-Oct-16 11:31N 42°21' W 070°56'41613.1
2017-Oct-16 11:30N 42°22' W 071°02'1 1.8
2017-Oct-16 11:00N 42°22' W 071°03'1454.9
2017-Oct-16 11:00N 42°22' W 071°02'0 0.0
2017-Oct-16 10:31N 42°22' W 071°02'0 0.3
2017-Oct-16 10:29N 42°22' W 071°02'0 0.7
2017-Oct-16 10:01N 42°22' W 071°02'045.8
2017-Oct-16 10:00N 42°22' W 071°02'510.7
2017-Oct-16 09:30N 42°22' W 070°55'519093.3
2017-Oct-16 09:30N 42°22' W 071°02'3 6.7
2017-Oct-16 09:00N 42°20' W 070°58'33024.6
2017-Oct-16 09:00N 42°22' W 071°02'2 4.4
2017-Oct-16 08:31N 42°20' W 070°60'2877.3
2017-Oct-16 08:30N 42°22' W 071°02'0 0.0
2017-Oct-16 08:01N 42°22' W 071°02'0 6.2
2017-Oct-16 08:00N 42°22' W 071°02'0 0.0
2017-Oct-16 07:31N 42°22' W 071°02'0 5.4
2017-Oct-16 07:30N 42°22' W 071°02'0 0.0
2017-Oct-16 07:01N 42°22' W 071°02'0 6.5
2017-Oct-16 07:00N 42°22' W 071°02'0 0.0
2017-Oct-16 06:30N 42°22' W 071°02'015.4
2017-Oct-16 06:30N 42°22' W 071°02'0 0.0
2017-Oct-16 06:00N 42°22' W 071°02'043.2
2017-Oct-16 06:00N 42°22' W 071°02'0 0.0
2017-Oct-16 05:30N 42°22' W 071°02'021.6
2017-Oct-16 05:30N 42°22' W 071°02'0 0.0
2017-Oct-16 05:01N 42°22' W 071°02'0 2.7
2017-Oct-16 05:00N 42°22' W 071°02'0 0.0
2017-Oct-16 04:31N 42°22' W 071°02'0 2.2
2017-Oct-16 04:30N 42°22' W 071°02'0 0.0
2017-Oct-16 04:00N 42°22' W 071°02'0 6.2
2017-Oct-16 04:00N 42°22' W 071°02'0 0.0
2017-Oct-16 03:31N 42°22' W 071°02'0 1.2
2017-Oct-16 03:30N 42°22' W 071°02'0 0.0
2017-Oct-16 03:00N 42°22' W 071°02'010.8
2017-Oct-16 03:00N 42°22' W 071°02'0 0.0
2017-Oct-16 02:30N 42°22' W 071°02'0 3.3
2017-Oct-16 02:30N 42°22' W 071°02'0 0.0
2017-Oct-16 02:01N 42°22' W 071°02'0 5.4
2017-Oct-16 02:00N 42°22' W 071°02'0 0.0
2017-Oct-16 01:30N 42°22' W 071°02'0 6.6
2017-Oct-16 01:30N 42°22' W 071°02'0 0.0
2017-Oct-16 01:00N 42°22' W 071°02'0 7.2
2017-Oct-16 01:00N 42°22' W 071°02'0 0.0
2017-Oct-16 00:31N 42°22' W 071°02'0 2.1
2017-Oct-16 00:30N 42°22' W 071°02'0 0.0
2017-Oct-16 00:01N 42°22' W 071°02'0 2.6
2017-Oct-16 00:00N 42°22' W 071°02'0 0.0
2017-Oct-15 23:30N 42°22' W 071°02'0 7.2
2017-Oct-15 23:30N 42°22' W 071°02'2 3.1
2017-Oct-15 23:00N 42°21' W 071°00'21886.8
2017-Oct-15 23:00N 42°22' W 071°02'0 0.0
2017-Oct-15 22:31N 42°22' W 071°02'713.8
2017-Oct-15 22:00N 42°23' W 070°53'7713.9
2017-Oct-15 22:00N 42°22' W 071°02'1 1.1
2017-Oct-15 21:31N 42°21' W 071°02'1115.5
2017-Oct-15 21:30N 42°22' W 071°02'611.5
2017-Oct-15 21:00N 42°22' W 070°54'64123.5
2017-Oct-15 21:00N 42°22' W 071°02'0 0.0
2017-Oct-15 20:30N 42°22' W 071°02'0 0.0
2017-Oct-15 20:00N 42°22' W 071°02'1 2.5
2017-Oct-15 19:30N 42°21' W 071°01'1237.0
2017-Oct-15 19:30N 42°22' W 071°02'0 0.0
2017-Oct-15 19:00N 42°22' W 071°02'013.4
2017-Oct-15 19:00N 42°22' W 071°02'3 6.2
2017-Oct-15 18:30N 42°21' W 070°58'33731.9
2017-Oct-15 18:30N 42°22' W 071°02'0 0.0
2017-Oct-15 18:00N 42°22' W 071°02'0 0.8
2017-Oct-15 18:00N 42°22' W 071°02'0 0.0
2017-Oct-15 17:31N 42°22' W 071°02'35591.7
2017-Oct-15 17:30N 42°20' W 070°58'3 6.2
2017-Oct-15 17:00N 42°22' W 071°02'517190.9
2017-Oct-15 17:00N 42°22' W 070°55'5 9.3
2017-Oct-15 16:30N 42°21' W 071°02'1375.4
2017-Oct-15 16:30N 42°22' W 071°02'1 2.7
2017-Oct-15 16:00N 42°23' W 071°03'1203.6
2017-Oct-15 16:00N 42°22' W 071°02'1 1.0
2017-Oct-15 15:30N 42°22' W 071°03'172.4
2017-Oct-15 15:30N 42°22' W 071°02'0 0.0
2017-Oct-15 15:00N 42°22' W 071°02'013.4
2017-Oct-15 15:00N 42°22' W 071°02'0 0.0
2017-Oct-15 14:00N 42°22' W 071°02'39786.8
2017-Oct-15 14:00N 42°20' W 070°59'3 5.4
2017-Oct-15 13:30N 42°22' W 071°02'0 3.3
2017-Oct-15 13:30N 42°22' W 071°02'0 0.0
2017-Oct-15 13:00N 42°22' W 071°02'064.8
2017-Oct-15 13:00N 42°22' W 071°02'0 0.0
2017-Oct-15 12:30N 42°22' W 071°02'0 5.9
2017-Oct-15 12:30N 42°22' W 071°02'0 0.0
2017-Oct-15 12:00N 42°22' W 071°02'014.4
2017-Oct-15 12:00N 42°22' W 071°02'0 0.0
2017-Oct-15 11:30N 42°22' W 071°02'014.4
2017-Oct-15 11:30N 42°22' W 071°02'1 3.0
2017-Oct-15 11:00N 42°23' W 071°03'12698.5
2017-Oct-15 11:00N 42°22' W 071°02'0 0.0
2017-Oct-15 10:30N 42°22' W 071°02'0 0.0
2017-Oct-15 10:01N 42°22' W 071°02'726447.8
2017-Oct-15 10:01N 42°23' W 070°52'3 5.6
2017-Oct-15 09:31N 42°24' W 070°49'104013.2
2017-Oct-15 09:30N 42°22' W 071°02'918.1
2017-Oct-15 09:00N 42°25' W 070°50'94060.2
2017-Oct-15 09:00N 42°22' W 071°02'917.5
2017-Oct-15 08:30N 42°25' W 070°51'94478.9
2017-Oct-15 08:30N 42°22' W 071°02'5 9.1
2017-Oct-15 08:01N 42°21' W 070°56'52032.9
2017-Oct-15 08:00N 42°22' W 071°02'0 0.0
2017-Oct-15 07:30N 42°22' W 071°02'016.2
2017-Oct-15 07:30N 42°22' W 071°02'0 0.0
2017-Oct-15 07:00N 42°22' W 071°02'0 5.9
2017-Oct-15 07:00N 42°22' W 071°02'0 0.0
2017-Oct-15 06:30N 42°22' W 071°02'0 0.2
2017-Oct-15 06:26N 42°22' W 071°02'0 0.0
2017-Oct-15 06:00N 42°22' W 071°02'0 3.1
2017-Oct-15 06:00N 42°22' W 071°02'0 0.0
2017-Oct-15 05:30N 42°22' W 071°02'0 1.0
2017-Oct-15 05:29N 42°22' W 071°02'0 0.0
2017-Oct-15 05:00N 42°22' W 071°02'0 6.2
2017-Oct-15 05:00N 42°22' W 071°02'0 0.0
2017-Oct-15 04:30N 42°22' W 071°02'0 5.4
2017-Oct-15 04:30N 42°22' W 071°02'0 0.0
2017-Oct-15 04:00N 42°22' W 071°02'0 8.1
2017-Oct-15 04:00N 42°22' W 071°02'0 0.0
2017-Oct-15 03:30N 42°22' W 071°02'0 2.5
2017-Oct-15 03:30N 42°22' W 071°02'0 0.0
2017-Oct-15 03:00N 42°22' W 071°02'010.8
2017-Oct-15 03:00N 42°22' W 071°02'0 0.0
2017-Oct-15 02:30N 42°22' W 071°02'0 7.2
2017-Oct-15 02:30N 42°22' W 071°02'0 0.0
2017-Oct-15 02:00N 42°22' W 071°02'0 3.6
2017-Oct-15 02:00N 42°22' W 071°02'0 0.0
2017-Oct-15 01:30N 42°22' W 071°02'010.8
2017-Oct-15 01:30N 42°22' W 071°02'2 3.2
2017-Oct-15 01:00N 42°21' W 071°00'21400.6
2017-Oct-15 01:00N 42°22' W 071°02'5 9.2
2017-Oct-15 00:30N 42°21' W 070°56'58308.0
2017-Oct-15 00:30N 42°22' W 071°02'918.5
2017-Oct-15 00:00N 42°24' W 070°50'93695.5
2017-Oct-15 00:00N 42°22' W 071°02'917.6
2017-Oct-14 23:30N 42°24' W 070°50'95238.4
2017-Oct-14 23:30N 42°22' W 071°02'1 3.0
2017-Oct-14 23:01N 42°21' W 071°01'2193.4
2017-Oct-14 23:00N 42°22' W 071°02'611.9
2017-Oct-14 22:30N 42°23' W 070°54'64223.3
2017-Oct-14 22:30N 42°22' W 071°02'3 5.4
2017-Oct-14 22:01N 42°20' W 070°59'3534.4
2017-Oct-14 22:00N 42°22' W 071°02'0 0.0
2017-Oct-14 21:30N 42°22' W 071°02'0 9.3
2017-Oct-14 21:30N 42°22' W 071°02'0 0.0
2017-Oct-14 21:01N 42°22' W 071°02'0 4.3
2017-Oct-14 21:00N 42°22' W 071°02'0 0.0
2017-Oct-14 20:31N 42°22' W 071°02'0 5.9
2017-Oct-14 20:30N 42°22' W 071°02'0 0.0
2017-Oct-14 20:00N 42°22' W 071°02'0 4.1
2017-Oct-14 20:00N 42°22' W 071°02'0 0.0
2017-Oct-14 19:31N 42°22' W 071°02'0 6.2
2017-Oct-14 19:30N 42°22' W 071°02'0 0.0
2017-Oct-14 19:00N 42°22' W 071°02'0 2.3
2017-Oct-14 19:00N 42°22' W 071°02'0 0.0
2017-Oct-14 18:31N 42°22' W 071°02'043.2
2017-Oct-14 18:31N 42°22' W 071°02'0 0.0
2017-Oct-14 18:01N 42°22' W 071°02'0 9.3
2017-Oct-14 18:00N 42°22' W 071°02'3 5.9
2017-Oct-14 17:31N 42°20' W 070°58'31313.4
2017-Oct-14 17:30N 42°22' W 071°02'713.7
2017-Oct-14 17:00N 42°23' W 070°53'71638.8
2017-Oct-14 17:00N 42°22' W 071°02'511.0
2017-Oct-14 16:31N 42°22' W 070°55'52456.8
2017-Oct-14 16:30N 42°22' W 071°02'0 0.0
2017-Oct-14 16:00N 42°22' W 071°02'021.6
2017-Oct-14 16:00N 42°22' W 071°02'0 0.0
2017-Oct-14 15:31N 42°22' W 071°02'0 7.2
2017-Oct-14 15:30N 42°22' W 071°02'0 0.0
2017-Oct-14 15:01N 42°22' W 071°02'0 4.8
2017-Oct-14 15:00N 42°22' W 071°02'0 0.0
2017-Oct-14 14:30N 42°22' W 071°02'032.4
2017-Oct-14 14:30N 42°22' W 071°02'0 0.0
2017-Oct-14 14:01N 42°22' W 071°02'0 4.8
2017-Oct-14 14:00N 42°22' W 071°02'0 0.0
2017-Oct-14 13:30N 42°22' W 071°02'021.6
2017-Oct-14 13:30N 42°22' W 071°02'0 0.0
2017-Oct-14 13:00N 42°22' W 071°02'043.2
2017-Oct-14 13:00N 42°22' W 071°02'0 0.0
2017-Oct-14 12:30N 42°22' W 071°02'0 4.3
2017-Oct-14 12:30N 42°22' W 071°02'0 0.0
2017-Oct-14 12:01N 42°22' W 071°02'0 2.3
2017-Oct-14 12:00N 42°22' W 071°02'0 0.0
2017-Oct-14 11:30N 42°22' W 071°02'064.8
2017-Oct-14 11:30N 42°22' W 071°02'1 2.9
2017-Oct-14 11:01N 42°21' W 071°01'1641.0
2017-Oct-14 11:00N 42°22' W 071°02'4 8.7
2017-Oct-14 10:30N 42°20' W 070°56'42593.1
2017-Oct-14 10:30N 42°22' W 071°02'918.0
2017-Oct-14 10:00N 42°23' W 070°50'932451.3
2017-Oct-14 10:00N 42°22' W 071°02'0 0.0
2017-Oct-14 09:31N 42°22' W 071°02'612.8
2017-Oct-14 09:01N 42°22' W 070°53'62305.3
2017-Oct-14 09:00N 42°22' W 071°02'1 2.4
2017-Oct-14 08:31N 42°21' W 071°02'1472.8
2017-Oct-14 08:30N 42°22' W 071°02'0 0.0
2017-Oct-14 08:00N 42°22' W 071°02'0 5.8
2017-Oct-14 08:00N 42°22' W 071°02'0 0.0
2017-Oct-14 07:30N 42°22' W 071°02'021.6
2017-Oct-14 07:30N 42°22' W 071°02'0 0.0
2017-Oct-14 07:00N 42°22' W 071°02'023.0
2017-Oct-14 07:00N 42°22' W 071°02'0 0.0
2017-Oct-14 06:30N 42°22' W 071°02'015.4
2017-Oct-14 06:30N 42°22' W 071°02'0 0.0
2017-Oct-14 06:00N 42°22' W 071°02'021.6
2017-Oct-14 06:00N 42°22' W 071°02'0 0.0
2017-Oct-14 05:30N 42°22' W 071°02'033.4
2017-Oct-14 05:30N 42°22' W 071°02'0 0.0
2017-Oct-14 05:00N 42°22' W 071°02'014.4
2017-Oct-14 05:00N 42°22' W 071°02'0 0.0
2017-Oct-14 04:30N 42°22' W 071°02'021.6
2017-Oct-14 04:30N 42°22' W 071°02'0 0.0
2017-Oct-14 04:00N 42°22' W 071°02'021.6
2017-Oct-14 04:00N 42°22' W 071°02'0 0.0
2017-Oct-14 03:30N 42°22' W 071°02'011.5
2017-Oct-14 03:30N 42°22' W 071°02'0 0.0
2017-Oct-14 03:00N 42°22' W 071°02'010.8
2017-Oct-14 03:00N 42°22' W 071°02'0 0.0
2017-Oct-14 02:31N 42°22' W 071°02'0 3.9
2017-Oct-14 02:30N 42°22' W 071°02'1 2.4
2017-Oct-14 02:00N 42°21' W 071°02'1248.1
2017-Oct-14 02:00N 42°22' W 071°02'0 0.0
2017-Oct-14 01:28N 42°22' W 071°02'5136.5
2017-Oct-14 01:26N 42°22' W 070°55'510.8
2017-Oct-14 00:59N 42°21' W 071°01'1 5.3
2017-Oct-14 00:50N 42°22' W 071°02'0 0.0
2017-Oct-14 00:27N 42°22' W 071°02'0 0.6
2017-Oct-14 00:26N 42°22' W 071°02'0 0.0
2017-Oct-13 23:58N 42°22' W 071°02'0 1.0
2017-Oct-13 23:57N 42°22' W 071°02'0 0.0
2017-Oct-13 23:20N 42°22' W 071°02'0 7.2
2017-Oct-13 23:20N 42°22' W 071°02'0 0.0
2017-Oct-13 23:01N 42°22' W 071°02'0 4.1
2017-Oct-13 23:00N 42°22' W 071°02'0 0.0
2017-Oct-13 22:30N 42°22' W 071°02'010.8
2017-Oct-13 22:30N 42°22' W 071°02'0 0.0
2017-Oct-13 22:00N 42°22' W 071°02'032.4
2017-Oct-13 22:00N 42°22' W 071°02'0 0.0
2017-Oct-13 21:30N 42°22' W 071°02'0 5.1
2017-Oct-13 21:30N 42°22' W 071°02'0 0.0
2017-Oct-13 21:00N 42°22' W 071°02'0 2.7
2017-Oct-13 21:00N 42°22' W 071°02'0 0.0
2017-Oct-13 20:30N 42°22' W 071°02'021.6
2017-Oct-13 20:30N 42°22' W 071°02'0 0.0
2017-Oct-13 20:00N 42°22' W 071°02'0 6.2
2017-Oct-13 20:00N 42°22' W 071°02'1 2.7
2017-Oct-13 19:30N 42°23' W 071°03'12425.0
2017-Oct-13 19:30N 42°22' W 071°02'2 4.7
2017-Oct-13 19:00N 42°20' W 070°59'21672.2
2017-Oct-13 19:00N 42°22' W 071°02'5 9.6
2017-Oct-13 18:30N 42°22' W 070°55'58670.7
2017-Oct-13 18:30N 42°22' W 071°02'1 2.1
2017-Oct-13 18:00N 42°21' W 071°01'1525.2
2017-Oct-13 18:00N 42°22' W 071°02'0 0.0
2017-Oct-13 17:30N 42°22' W 071°02'014.4
2017-Oct-13 17:30N 42°22' W 071°02'0 0.0
2017-Oct-13 17:00N 42°22' W 071°02'0 7.2
2017-Oct-13 17:00N 42°22' W 071°02'0 0.0
2017-Oct-13 16:30N 42°22' W 071°02'0 5.0
2017-Oct-13 16:30N 42°22' W 071°02'0 0.0
2017-Oct-13 16:00N 42°22' W 071°02'021.6
2017-Oct-13 16:00N 42°22' W 071°02'0 0.0
2017-Oct-13 15:30N 42°22' W 071°02'021.6
2017-Oct-13 15:30N 42°22' W 071°02'0 0.0
2017-Oct-13 15:00N 42°22' W 071°02'021.6
2017-Oct-13 15:00N 42°22' W 071°02'0 0.0
2017-Oct-13 14:30N 42°22' W 071°02'0 5.4
2017-Oct-13 14:30N 42°22' W 071°02'0 0.0
2017-Oct-13 14:00N 42°22' W 071°02'0 8.6
2017-Oct-13 14:00N 42°22' W 071°02'0 0.0
2017-Oct-13 13:30N 42°22' W 071°02'0 3.3
2017-Oct-13 13:30N 42°22' W 071°02'0 0.0
2017-Oct-13 13:00N 42°22' W 071°02'0 2.8
2017-Oct-13 13:00N 42°22' W 071°02'0 0.0
2017-Oct-13 12:31N 42°22' W 071°02'013.3
2017-Oct-13 12:30N 42°22' W 071°02'0 0.0
2017-Oct-13 12:00N 42°22' W 071°02'0 2.8
2017-Oct-13 12:00N 42°22' W 071°02'0 0.0
2017-Oct-13 11:30N 42°22' W 071°02'021.6
2017-Oct-13 11:30N 42°22' W 071°02'0 0.0
2017-Oct-13 11:01N 42°22' W 071°02'0 0.0
2017-Oct-13 10:30N 42°22' W 071°02'021.6
2017-Oct-13 10:30N 42°22' W 071°02'0 0.0
2017-Oct-13 10:00N 42°22' W 071°02'0 7.2
2017-Oct-13 10:00N 42°22' W 071°02'510.8
2017-Oct-13 09:30N 42°22' W 070°55'56442.1
2017-Oct-13 09:30N 42°22' W 071°02'815.5
2017-Oct-13 09:00N 42°23' W 070°52'85549.8
2017-Oct-13 09:00N 42°22' W 071°02'3 5.7
2017-Oct-13 08:30N 42°20' W 070°59'31699.3
2017-Oct-13 08:30N 42°22' W 071°02'0 0.0
2017-Oct-13 08:00N 42°22' W 071°02'0 7.7
2017-Oct-13 08:00N 42°22' W 071°02'0 0.0
2017-Oct-13 07:30N 42°22' W 071°02'0 4.1
2017-Oct-13 07:30N 42°22' W 071°02'0 0.0
2017-Oct-13 07:01N 42°22' W 071°02'021.6
2017-Oct-13 07:00N 42°22' W 071°02'0 0.0
2017-Oct-13 06:30N 42°22' W 071°02'013.3
2017-Oct-13 06:30N 42°22' W 071°02'0 0.0
2017-Oct-13 06:00N 42°22' W 071°02'0 8.6
2017-Oct-13 06:00N 42°22' W 071°02'0 0.0
2017-Oct-13 05:30N 42°22' W 071°02'010.8
2017-Oct-13 05:30N 42°22' W 071°02'0 0.0
2017-Oct-13 05:00N 42°22' W 071°02'013.0
2017-Oct-13 05:00N 42°22' W 071°02'0 0.0
2017-Oct-13 04:30N 42°22' W 071°02'0 8.3
2017-Oct-13 04:30N 42°22' W 071°02'0 0.0
2017-Oct-13 04:00N 42°22' W 071°02'010.8
2017-Oct-13 04:00N 42°22' W 071°02'0 0.0
2017-Oct-13 03:30N 42°22' W 071°02'013.0
2017-Oct-13 03:30N 42°22' W 071°02'0 0.0
2017-Oct-13 03:00N 42°22' W 071°02'0 6.6
2017-Oct-13 03:00N 42°22' W 071°02'0 0.0
2017-Oct-13 02:30N 42°22' W 071°02'013.0
2017-Oct-13 02:30N 42°22' W 071°02'0 0.0
2017-Oct-13 02:00N 42°22' W 071°02'0 7.2
2017-Oct-13 02:00N 42°22' W 071°02'0 0.0
2017-Oct-13 01:31N 42°22' W 071°02'014.4
2017-Oct-13 01:30N 42°22' W 071°02'0 0.0
2017-Oct-13 01:00N 42°22' W 071°02'013.0
2017-Oct-13 01:00N 42°22' W 071°02'0 0.0
2017-Oct-13 00:31N 42°22' W 071°02'021.6
2017-Oct-13 00:30N 42°22' W 071°02'0 0.0
2017-Oct-13 00:00N 42°22' W 071°02'016.2
2017-Oct-13 00:00N 42°22' W 071°02'1 2.6
2017-Oct-12 23:30N 42°21' W 071°01'1274.4
2017-Oct-12 23:30N 42°22' W 071°02'713.2
2017-Oct-12 23:00N 42°23' W 070°53'71304.9
2017-Oct-12 23:00N 42°22' W 071°02'4 8.9
2017-Oct-12 22:31N 42°21' W 070°56'41980.8
2017-Oct-12 22:30N 42°22' W 071°02'5 9.8
2017-Oct-12 22:00N 42°22' W 070°55'51032.6
2017-Oct-12 22:00N 42°22' W 071°02'714.3
2017-Oct-12 21:31N 42°23' W 070°53'71340.8
2017-Oct-12 21:30N 42°22' W 071°02'4 8.7
2017-Oct-12 21:00N 42°21' W 070°56'41291.6
2017-Oct-12 21:00N 42°22' W 071°02'1 2.5
2017-Oct-12 20:30N 42°21' W 071°01'1276.0
2017-Oct-12 20:30N 42°22' W 071°02'0 0.0
2017-Oct-12 20:00N 42°22' W 071°02'014.4
2017-Oct-12 20:00N 42°22' W 071°02'0 0.0
2017-Oct-12 19:30N 42°22' W 071°02'010.8
2017-Oct-12 19:30N 42°22' W 071°02'0 0.0
2017-Oct-12 19:01N 42°22' W 071°02'016.2
2017-Oct-12 19:00N 42°22' W 071°02'0 0.0
2017-Oct-12 18:30N 42°22' W 071°02'0 9.3
2017-Oct-12 18:30N 42°22' W 071°02'0 0.0
2017-Oct-12 18:00N 42°22' W 071°02'0 4.3
2017-Oct-12 18:00N 42°22' W 071°02'0 0.0
2017-Oct-12 17:30N 42°22' W 071°02'013.0
2017-Oct-12 17:30N 42°22' W 071°02'0 0.0
2017-Oct-12 17:00N 42°22' W 071°02'0 6.2
2017-Oct-12 17:00N 42°22' W 071°02'0 0.0
2017-Oct-12 16:30N 42°22' W 071°02'0 9.2
2017-Oct-12 16:30N 42°22' W 071°02'0 0.0
2017-Oct-12 16:00N 42°22' W 071°02'010.8
2017-Oct-12 16:00N 42°22' W 071°02'0 0.0
2017-Oct-12 15:30N 42°22' W 071°02'0 4.3
2017-Oct-12 15:30N 42°22' W 071°02'0 0.0
2017-Oct-12 15:00N 42°22' W 071°02'0 7.2
2017-Oct-12 15:00N 42°22' W 071°02'0 0.0
2017-Oct-12 14:30N 42°22' W 071°02'0 0.8
2017-Oct-12 14:29N 42°22' W 071°02'0 0.0
2017-Oct-12 14:00N 42°22' W 071°02'0 8.6
2017-Oct-12 14:00N 42°22' W 071°02'0 0.0
2017-Oct-12 13:30N 42°22' W 071°02'010.8
2017-Oct-12 13:30N 42°22' W 071°02'0 0.0
2017-Oct-12 13:00N 42°22' W 071°02'0 9.3
2017-Oct-12 13:00N 42°22' W 071°02'0 0.0
2017-Oct-12 12:30N 42°22' W 071°02'0 4.3
2017-Oct-12 12:30N 42°22' W 071°02'0 0.0
2017-Oct-12 12:01N 42°22' W 071°02'016.2
2017-Oct-12 12:00N 42°22' W 071°02'0 0.0
2017-Oct-12 11:31N 42°22' W 071°02'12355.5
2017-Oct-12 11:31N 42°23' W 071°03'1 2.3
2017-Oct-12 11:00N 42°22' W 071°02'092.3
2017-Oct-12 11:00N 42°22' W 071°02'4 8.8
2017-Oct-12 10:30N 42°21' W 070°56'43158.9
2017-Oct-12 10:30N 42°22' W 071°02'917.5
2017-Oct-12 10:00N 42°24' W 070°50'9898.7
2017-Oct-12 10:00N 42°22' W 071°02'815.9
2017-Oct-12 09:30N 42°23' W 070°52'81119.1
2017-Oct-12 09:30N 42°22' W 071°02'4 8.8
2017-Oct-12 09:00N 42°21' W 070°56'41121.8
2017-Oct-12 09:00N 42°22' W 071°02'1 1.7
2017-Oct-12 08:30N 42°21' W 071°01'1123.9
2017-Oct-12 08:30N 42°22' W 071°02'713.6
2017-Oct-12 08:01N 42°23' W 070°53'72680.2
2017-Oct-12 08:00N 42°22' W 071°02'5 9.9
2017-Oct-12 07:30N 42°22' W 070°55'51268.8
2017-Oct-12 07:30N 42°22' W 071°02'815.7
2017-Oct-12 07:00N 42°23' W 070°51'814071.7
2017-Oct-12 07:00N 42°22' W 071°02'0 0.0
2017-Oct-12 06:31N 42°22' W 071°02'41964.1
2017-Oct-12 06:30N 42°21' W 070°56'4 8.7
2017-Oct-12 06:00N 42°22' W 071°02'0 9.0
2017-Oct-12 06:00N 42°22' W 071°02'2 4.2
2017-Oct-12 05:30N 42°23' W 071°04'27543.4
2017-Oct-12 05:30N 42°22' W 071°02'0 0.0
2017-Oct-12 05:00N 42°22' W 071°02'064.8
2017-Oct-12 05:00N 42°22' W 071°02'0 0.0
2017-Oct-12 04:30N 42°22' W 071°02'064.8
2017-Oct-12 04:30N 42°22' W 071°02'0 0.0
2017-Oct-12 04:00N 42°22' W 071°02'0 0.0
2017-Oct-12 03:30N 42°22' W 071°02'0 0.0
2017-Oct-12 03:00N 42°22' W 071°02'021.6
2017-Oct-12 03:00N 42°22' W 071°02'0 0.0
2017-Oct-12 02:30N 42°22' W 071°02'064.8
2017-Oct-12 02:30N 42°22' W 071°02'0 0.0
2017-Oct-12 02:00N 42°22' W 071°02'021.6
2017-Oct-12 02:00N 42°22' W 071°02'0 0.0
2017-Oct-12 01:30N 42°22' W 071°02'046.1
2017-Oct-12 01:30N 42°22' W 071°02'0 0.0
2017-Oct-12 01:01N 42°22' W 071°02'0 0.0
2017-Oct-12 00:30N 42°22' W 071°02'2762.6
2017-Oct-12 00:30N 42°20' W 070°60'2 4.7
2017-Oct-12 00:00N 42°22' W 071°02'0 0.0
2017-Oct-11 23:31N 42°22' W 071°02'0 1.4
2017-Oct-11 23:30N 42°22' W 071°02'4 8.8
2017-Oct-11 23:00N 42°18' W 070°58'42234.0
2017-Oct-11 23:00N 42°22' W 071°02'0 0.0
2017-Oct-11 22:31N 42°22' W 071°02'89239.7
2017-Oct-11 22:30N 42°15' W 070°58'815.4
2017-Oct-11 22:01N 42°22' W 071°02'713408.5
2017-Oct-11 22:00N 42°19' W 070°52'714.9
2017-Oct-11 21:31N 42°22' W 071°02'66864.7
2017-Oct-11 21:30N 42°19' W 070°55'5 9.0
2017-Oct-11 21:00N 42°21' W 071°01'1952.8
2017-Oct-11 21:00N 42°22' W 071°02'0 0.0
2017-Oct-11 20:30N 42°22' W 071°02'0 1.8
2017-Oct-11 20:30N 42°22' W 071°02'0 0.0
2017-Oct-11 20:00N 42°22' W 071°02'0 1.4
2017-Oct-11 20:00N 42°22' W 071°02'0 0.0
2017-Oct-11 19:31N 42°22' W 071°02'0 0.0
2017-Oct-11 19:30N 42°22' W 071°02'612.1
2017-Oct-11 19:00N 42°22' W 070°54'61672.2
2017-Oct-11 19:00N 42°22' W 071°02'3 7.0
2017-Oct-11 18:30N 42°20' W 070°58'31135.9
2017-Oct-11 18:30N 42°22' W 071°02'1 2.4
2017-Oct-11 18:00N 42°21' W 071°01'1324.1
2017-Oct-11 18:00N 42°22' W 071°02'1 2.5
2017-Oct-11 17:30N 42°21' W 071°02'1196.9
2017-Oct-11 17:30N 42°22' W 071°02'0 0.0
2017-Oct-11 17:01N 42°22' W 071°02'1594.7
2017-Oct-11 17:00N 42°23' W 071°03'3 0.2
2017-Oct-11 00:00N 42°21' W 071°00'21452.8
2017-Oct-11 00:00N 42°22' W 071°02'510.6
2017-Oct-10 23:30N 42°22' W 070°55'5789.9
2017-Oct-10 23:30N 42°22' W 071°02'0 0.0
2017-Oct-10 23:01N 42°22' W 071°02'65461.2
2017-Oct-10 23:00N 42°23' W 070°54'1 1.2
2017-Oct-10 22:30N 42°22' W 070°54'63996.7
2017-Oct-10 22:30N 42°22' W 071°02'919.0
2017-Oct-10 22:00N 42°24' W 070°49'94880.6
2017-Oct-10 22:00N 42°22' W 071°02'917.9
2017-Oct-10 21:30N 42°23' W 070°50'94590.3
2017-Oct-10 21:30N 42°22' W 071°02'3 5.5
2017-Oct-10 21:00N 42°20' W 070°59'33301.0
2017-Oct-10 21:00N 42°22' W 071°02'0 0.6
2017-Oct-10 20:30N 42°21' W 071°02'0163.8
2017-Oct-10 20:30N 42°22' W 071°02'0 0.0
2017-Oct-10 20:01N 42°22' W 071°02'0 0.7
2017-Oct-10 20:00N 42°22' W 071°02'611.4
2017-Oct-10 19:30N 42°22' W 070°54'62866.2
2017-Oct-10 19:30N 42°22' W 071°02'3 5.2
2017-Oct-10 19:00N 42°20' W 070°59'3447.2
2017-Oct-10 19:00N 42°22' W 071°02'0 0.0
2017-Oct-10 18:30N 42°22' W 071°02'0 0.6
2017-Oct-10 18:30N 42°22' W 071°02'0 0.0
2017-Oct-10 18:00N 42°22' W 071°02'0 1.0
2017-Oct-10 18:00N 42°22' W 071°02'0 0.0
2017-Oct-10 17:30N 42°22' W 071°02'414120.0
2017-Oct-10 17:30N 42°20' W 070°57'0 0.9
2017-Oct-10 17:00N 42°21' W 070°56'4203.6
2017-Oct-10 16:59N 42°22' W 071°02'1 2.3
2017-Oct-10 16:30N 42°21' W 071°01'1169.1
2017-Oct-10 16:30N 42°22' W 071°02'0 0.0
2017-Oct-10 16:00N 42°22' W 071°02'0 5.4
2017-Oct-10 16:00N 42°22' W 071°02'0 0.0
2017-Oct-10 15:30N 42°22' W 071°02'0264.1
2017-Oct-10 15:30N 42°22' W 071°02'1 1.8
2017-Oct-10 15:00N 42°22' W 071°03'1921.0
2017-Oct-10 15:00N 42°22' W 071°02'0 0.4
2017-Oct-10 14:01N 42°22' W 071°02'051.1
2017-Oct-10 14:00N 42°22' W 071°02'0 0.0
2017-Oct-10 13:31N 42°22' W 071°02'0 1.5
2017-Oct-10 13:30N 42°22' W 071°02'0 0.0
2017-Oct-10 13:00N 42°22' W 071°02'026.9
2017-Oct-10 13:00N 42°22' W 071°02'1 2.7
2017-Oct-10 12:30N 42°23' W 071°03'1692.8
2017-Oct-10 12:30N 42°22' W 071°02'  
Track history (hours):
 
Tides and Currents Weather Stations Pressure Air Temp Water Temp Dewpoint Dewpoint Depression Visibility Wind Speed Wind Dir Waves Ship Positions

Boston Pilot Mystic

Last reported at 2017-Oct-20 12:30 UTC. Time now 2017-Oct-20 12:43 UTC.
Position N 42°22' W 071°02'.

Length 16 m; draft 1.5 m.

Type: Pilot. MMSI: 367029020.

Date/timePositionNaut miles runAvg speedWind from/ knotsBaromVisibWave heightAir tempDewpointWater temp
2017-Oct-20 12:30N 42°22' W 071°02'0 0.1
2017-Oct-20 12:10N 42°22' W 071°02'0 0.1
2017-Oct-20 12:00N 42°22' W 071°02'182.2
2017-Oct-20 11:59N 42°22' W 071°03'0 0.7
2017-Oct-20 11:30N 42°22' W 071°03'116.2
2017-Oct-20 11:28N 42°22' W 071°02'0 0.0
2017-Oct-20 10:57N 42°22' W 071°02'0 3.1
2017-Oct-20 10:52N 42°22' W 071°02'4 9.8
2017-Oct-20 10:30N 42°20' W 070°57'4324.9
2017-Oct-20 10:29N 42°22' W 071°02'918.7
2017-Oct-20 10:00N 42°24' W 070°50'94046.6
2017-Oct-20 10:00N 42°22' W 071°02'0 0.0
2017-Oct-20 09:30N 42°22' W 071°02'9861.7
2017-Oct-20 09:29N 42°24' W 070°50'3 5.9
2017-Oct-20 09:01N 42°23' W 070°53'73387.4
2017-Oct-20 09:00N 42°22' W 071°02'0 0.0
2017-Oct-20 08:30N 42°22' W 071°02'1221.7
2017-Oct-20 08:30N 42°21' W 071°02'1 2.4
2017-Oct-20 08:00N 42°22' W 071°02'0 6.6
2017-Oct-20 08:00N 42°22' W 071°02'0 0.0
2017-Oct-20 07:30N 42°22' W 071°02'021.6
2017-Oct-20 07:30N 42°22' W 071°02'0 0.0
2017-Oct-20 07:01N 42°22' W 071°02'013.0
2017-Oct-20 07:00N 42°22' W 071°02'0 0.0
2017-Oct-20 06:30N 42°22' W 071°02'014.4
2017-Oct-20 06:30N 42°22' W 071°02'0 0.0
2017-Oct-20 06:00N 42°22' W 071°02'013.0
2017-Oct-20 06:00N 42°22' W 071°02'0 0.0
2017-Oct-20 05:30N 42°22' W 071°02'016.2
2017-Oct-20 05:30N 42°22' W 071°02'0 0.0
2017-Oct-20 05:00N 42°22' W 071°02'0 8.6
2017-Oct-20 05:00N 42°22' W 071°02'0 0.0
2017-Oct-20 04:30N 42°22' W 071°02'016.2
2017-Oct-20 04:30N 42°22' W 071°02'0 0.0
2017-Oct-20 04:00N 42°22' W 071°02'010.8
2017-Oct-20 04:00N 42°22' W 071°02'0 0.0
2017-Oct-20 03:30N 42°22' W 071°02'043.2
2017-Oct-20 03:30N 42°22' W 071°02'5 9.8
2017-Oct-20 03:00N 42°22' W 070°55'58850.9
2017-Oct-20 03:00N 42°22' W 071°02'4 8.8
2017-Oct-20 02:30N 42°21' W 070°56'47937.0
2017-Oct-20 02:30N 42°22' W 071°02'1 2.0
2017-Oct-20 02:00N 42°21' W 071°01'11780.9
2017-Oct-20 02:00N 42°22' W 071°02'0 0.0
2017-Oct-20 01:30N 42°22' W 071°02'0 0.4
2017-Oct-20 01:29N 42°22' W 071°02'3 5.6
2017-Oct-20 01:01N 42°20' W 070°59'31614.9
2017-Oct-20 01:00N 42°22' W 071°02'0 0.0
2017-Oct-20 00:31N 42°22' W 071°02'6486.5
2017-Oct-20 00:30N 42°23' W 070°53'611.7
2017-Oct-20 00:01N 42°20' W 071°00'2356.2
2017-Oct-20 00:00N 42°22' W 071°02'0 0.0
2017-Oct-19 23:30N 42°22' W 071°02'612.0
2017-Oct-19 23:01N 42°23' W 070°54'62153.8
2017-Oct-19 23:00N 42°22' W 071°02'1 2.9
2017-Oct-19 22:31N 42°21' W 071°01'1518.9
2017-Oct-19 22:30N 42°22' W 071°02'0 0.0
2017-Oct-19 22:00N 42°22' W 071°02'021.6
2017-Oct-19 22:00N 42°22' W 071°02'0 0.0
2017-Oct-19 21:31N 42°22' W 071°02'0 4.8
2017-Oct-19 21:30N 42°22' W 071°02'0 0.0
2017-Oct-19 21:00N 42°22' W 071°02'0 2.7
2017-Oct-19 21:00N 42°22' W 071°02'0 0.0
2017-Oct-19 20:31N 42°22' W 071°02'0 5.0
2017-Oct-19 20:30N 42°22' W 071°02'0 0.0
2017-Oct-19 20:00N 42°22' W 071°02'010.8
2017-Oct-19 20:00N 42°22' W 071°02'0 0.0
2017-Oct-19 19:31N 42°22' W 071°02'0 8.1
2017-Oct-19 19:30N 42°22' W 071°02'0 0.0
2017-Oct-19 19:01N 42°22' W 071°02'0 5.4
2017-Oct-19 19:00N 42°22' W 071°02'0 0.0
2017-Oct-19 18:31N 42°22' W 071°02'0 7.2
2017-Oct-19 18:30N 42°22' W 071°02'0 0.0
2017-Oct-19 18:01N 42°22' W 071°02'0 7.2
2017-Oct-19 18:00N 42°22' W 071°02'0 0.0
2017-Oct-19 17:31N 42°22' W 071°02'010.8
2017-Oct-19 17:30N 42°22' W 071°02'0 0.0
2017-Oct-19 17:00N 42°22' W 071°02'0 9.3
2017-Oct-19 17:00N 42°22' W 071°02'0 0.0
2017-Oct-19 16:31N 42°22' W 071°02'0 5.4
2017-Oct-19 16:30N 42°22' W 071°02'0 0.0
2017-Oct-19 16:01N 42°22' W 071°02'0 0.0
2017-Oct-19 15:30N 42°22' W 071°02'6923.4
2017-Oct-19 15:30N 42°22' W 070°54'4 7.7
2017-Oct-19 15:00N 42°20' W 070°58'31797.6
2017-Oct-19 15:00N 42°22' W 071°02'3 6.3
2017-Oct-19 14:30N 42°21' W 070°58'3432.8
2017-Oct-19 14:30N 42°22' W 071°02'3 6.3
2017-Oct-19 14:00N 42°20' W 070°58'32770.8
2017-Oct-19 14:00N 42°22' W 071°02'0 0.0
2017-Oct-19 13:31N 42°22' W 071°02'54281.6
2017-Oct-19 13:30N 42°22' W 070°55'5 9.5
2017-Oct-19 13:01N 42°22' W 071°02'98112.0
2017-Oct-19 13:00N 42°24' W 070°50'918.1
2017-Oct-19 12:31N 42°22' W 071°02'58276.4
2017-Oct-19 12:30N 42°21' W 070°56'5 9.2
2017-Oct-19 12:01N 42°22' W 071°02'0 0.6
2017-Oct-19 12:00N 42°22' W 071°02'0 0.0
2017-Oct-19 11:31N 42°22' W 071°02'0 0.8
2017-Oct-19 11:30N 42°22' W 071°02'4 7.4
2017-Oct-19 11:01N 42°20' W 070°57'41312.6
2017-Oct-19 11:00N 42°22' W 071°02'919.1
2017-Oct-19 10:31N 42°24' W 070°49'94271.6
2017-Oct-19 10:30N 42°22' W 071°02'4 7.3
2017-Oct-19 10:00N 42°20' W 070°57'413137.0
2017-Oct-19 10:00N 42°22' W 071°02'0 0.0
2017-Oct-19 09:30N 42°22' W 071°02'0 7.2
2017-Oct-19 09:30N 42°22' W 071°02'0 0.0
2017-Oct-19 09:01N 42°22' W 071°02'064.8
2017-Oct-19 09:01N 42°22' W 071°02'0 0.0
2017-Oct-19 08:30N 42°22' W 071°02'0 6.6
2017-Oct-19 08:30N 42°22' W 071°02'0 0.0
2017-Oct-19 08:01N 42°22' W 071°02'010.8
2017-Oct-19 08:00N 42°22' W 071°02'0 0.0
2017-Oct-19 07:30N 42°22' W 071°02'043.2
2017-Oct-19 07:30N 42°22' W 071°02'0 0.0
2017-Oct-19 07:00N 42°22' W 071°02'0 7.2
2017-Oct-19 07:00N 42°22' W 071°02'0 0.0
2017-Oct-19 06:31N 42°22' W 071°02'0 4.3
2017-Oct-19 06:30N 42°22' W 071°02'0 0.0
2017-Oct-19 06:01N 42°22' W 071°02'0 0.0
2017-Oct-19 05:31N 42°22' W 071°02'023.0
2017-Oct-19 05:30N 42°22' W 071°02'0 0.0
2017-Oct-19 05:01N 42°22' W 071°02'0 8.1
2017-Oct-19 05:00N 42°22' W 071°02'0 0.0
2017-Oct-19 04:30N 42°22' W 071°02'010.8
2017-Oct-19 04:30N 42°22' W 071°02'0 0.0
2017-Oct-19 04:00N 42°22' W 071°02'011.5
2017-Oct-19 04:00N 42°22' W 071°02'0 0.0
2017-Oct-19 03:30N 42°22' W 071°02'0 8.6
2017-Oct-19 03:30N 42°22' W 071°02'0 0.0
2017-Oct-19 03:00N 42°22' W 071°02'010.8
2017-Oct-19 03:00N 42°22' W 071°02'0 0.0
2017-Oct-19 02:30N 42°22' W 071°02'0 6.2
2017-Oct-19 02:30N 42°22' W 071°02'0 0.0
2017-Oct-19 02:00N 42°22' W 071°02'0 7.2
2017-Oct-19 02:00N 42°22' W 071°02'0 0.0
2017-Oct-19 01:30N 42°22' W 071°02'013.0
2017-Oct-19 01:30N 42°22' W 071°02'0 0.0
2017-Oct-19 01:00N 42°22' W 071°02'0 5.4
2017-Oct-19 01:00N 42°22' W 071°02'0 0.0
2017-Oct-19 00:31N 42°22' W 071°02'0 5.0
2017-Oct-19 00:30N 42°22' W 071°02'0 0.0
2017-Oct-19 00:01N 42°22' W 071°02'47692.1
2017-Oct-19 00:00N 42°21' W 070°56'1 2.6
2017-Oct-18 23:30N 42°22' W 070°55'52180.0
2017-Oct-18 23:30N 42°22' W 071°02'1 2.5
2017-Oct-18 23:00N 42°21' W 071°01'14548.7
2017-Oct-18 23:00N 42°22' W 071°02'1 2.3
2017-Oct-18 22:31N 42°21' W 071°02'1525.8
2017-Oct-18 22:30N 42°22' W 071°02'611.5
2017-Oct-18 22:00N 42°22' W 070°54'63445.4
2017-Oct-18 22:00N 42°22' W 071°02'2 4.8
2017-Oct-18 21:31N 42°20' W 070°60'21064.2
2017-Oct-18 21:30N 42°22' W 071°02'0 0.0
2017-Oct-18 21:01N 42°22' W 071°02'0 3.9
2017-Oct-18 21:00N 42°22' W 071°02'0 0.0
2017-Oct-18 20:30N 42°22' W 071°02'0 3.6
2017-Oct-18 20:30N 42°22' W 071°02'0 0.0
2017-Oct-18 20:00N 42°22' W 071°02'010.8
2017-Oct-18 20:00N 42°22' W 071°02'0 0.0
2017-Oct-18 19:31N 42°22' W 071°02'0 8.1
2017-Oct-18 19:30N 42°22' W 071°02'0 0.0
2017-Oct-18 19:00N 42°22' W 071°02'021.6
2017-Oct-18 19:00N 42°22' W 071°02'0 0.0
2017-Oct-18 18:30N 42°22' W 071°02'0 8.3
2017-Oct-18 18:30N 42°22' W 071°02'511.0
2017-Oct-18 18:00N 42°22' W 070°55'53938.7
2017-Oct-18 18:00N 42°22' W 071°02'3 6.8
2017-Oct-18 17:31N 42°20' W 070°58'31742.3
2017-Oct-18 17:30N 42°22' W 071°02'1 1.1
2017-Oct-18 17:01N 42°21' W 071°01'1226.7
2017-Oct-18 17:00N 42°22' W 071°02'1 2.7
2017-Oct-18 16:30N 42°23' W 071°03'1605.0
2017-Oct-18 16:30N 42°22' W 071°02'1 2.7
2017-Oct-18 16:01N 42°23' W 071°03'1695.3
2017-Oct-18 16:00N 42°22' W 071°02'1 2.7
2017-Oct-18 15:30N 42°23' W 071°03'1303.1
2017-Oct-18 15:30N 42°22' W 071°02'0 0.0
2017-Oct-18 15:00N 42°22' W 071°02'0 6.7
2017-Oct-18 15:00N 42°22' W 071°02'0 0.0
2017-Oct-18 14:00N 42°22' W 071°02'0 6.7
2017-Oct-18 14:00N 42°22' W 071°02'2 4.8
2017-Oct-18 13:30N 42°20' W 070°59'24316.7
2017-Oct-18 13:30N 42°22' W 071°02'918.5
2017-Oct-18 13:01N 42°24' W 070°50'93691.9
2017-Oct-18 13:00N 42°22' W 071°02'4 9.0
2017-Oct-18 12:30N 42°21' W 070°56'42684.0
2017-Oct-18 12:30N 42°22' W 071°02'0 0.0
2017-Oct-18 12:00N 42°22' W 071°02'0 0.0
2017-Oct-18 11:31N 42°22' W 071°02'0 2.2
2017-Oct-18 11:30N 42°22' W 071°02'4 8.3
2017-Oct-18 11:01N 42°21' W 070°57'41651.5
2017-Oct-18 11:00N 42°22' W 071°02'919.0
2017-Oct-18 10:31N 42°25' W 070°50'93784.3
2017-Oct-18 10:30N 42°22' W 071°02'917.9
2017-Oct-18 10:00N 42°23' W 070°50'96431.1
2017-Oct-18 10:00N 42°22' W 071°02'817.0
2017-Oct-18 09:30N 42°24' W 070°51'810185.9
2017-Oct-18 09:30N 42°22' W 071°02'4 8.9
2017-Oct-18 09:00N 42°21' W 070°56'42666.9
2017-Oct-18 09:00N 42°22' W 071°02'1 2.1
2017-Oct-18 08:30N 42°21' W 071°01'1940.2
2017-Oct-18 08:30N 42°22' W 071°02'1 2.2
2017-Oct-18 08:00N 42°21' W 071°01'1782.3
2017-Oct-18 08:00N 42°22' W 071°02'0 0.0
2017-Oct-18 07:30N 42°22' W 071°02'0 6.2
2017-Oct-18 07:30N 42°22' W 071°02'0 0.0
2017-Oct-18 07:00N 42°22' W 071°02'0 2.5
2017-Oct-18 07:00N 42°22' W 071°02'0 0.0
2017-Oct-18 06:30N 42°22' W 071°02'0 7.2
2017-Oct-18 06:30N 42°22' W 071°02'0 0.0
2017-Oct-18 06:00N 42°22' W 071°02'016.2
2017-Oct-18 06:00N 42°22' W 071°02'0 0.0
2017-Oct-18 05:30N 42°22' W 071°02'021.6
2017-Oct-18 05:30N 42°22' W 071°02'0 0.0
2017-Oct-18 05:00N 42°22' W 071°02'016.2
2017-Oct-18 05:00N 42°22' W 071°02'0 0.0
2017-Oct-18 04:30N 42°22' W 071°02'013.0
2017-Oct-18 04:30N 42°22' W 071°02'0 0.0
2017-Oct-18 04:00N 42°22' W 071°02'0 5.0
2017-Oct-18 04:00N 42°22' W 071°02'0 0.0
2017-Oct-18 03:30N 42°22' W 071°02'016.2
2017-Oct-18 03:30N 42°22' W 071°02'0 0.0
2017-Oct-18 03:00N 42°22' W 071°02'013.0
2017-Oct-18 03:00N 42°22' W 071°02'0 0.0
2017-Oct-18 02:30N 42°22' W 071°02'0 2.0
2017-Oct-18 02:30N 42°22' W 071°02'0 0.0
2017-Oct-18 02:00N 42°22' W 071°02'013.0
2017-Oct-18 02:00N 42°22' W 071°02'0 0.0
2017-Oct-18 01:30N 42°22' W 071°02'1301.0
2017-Oct-18 01:30N 42°21' W 071°02'611.6
2017-Oct-18 01:01N 42°22' W 070°55'5656.9
2017-Oct-18 01:00N 42°22' W 071°02'5 9.4
2017-Oct-18 00:30N 42°21' W 070°56'58343.8
2017-Oct-18 00:30N 42°22' W 071°02'611.6
2017-Oct-18 00:00N 42°22' W 070°54'620751.6
2017-Oct-18 00:00N 42°22' W 071°02'4 7.4
2017-Oct-17 23:30N 42°20' W 070°57'44426.5
2017-Oct-17 23:30N 42°22' W 071°02'0 0.0
2017-Oct-17 23:01N 42°22' W 071°02'0 2.3
2017-Oct-17 23:00N 42°22' W 071°02'0 0.0
2017-Oct-17 22:30N 42°22' W 071°02'0 6.2
2017-Oct-17 22:30N 42°22' W 071°02'0 0.0
2017-Oct-17 22:00N 42°22' W 071°02'0 9.5
2017-Oct-17 22:00N 42°22' W 071°02'0 0.0
2017-Oct-17 21:30N 42°22' W 071°02'021.6
2017-Oct-17 21:30N 42°22' W 071°02'0 0.0
2017-Oct-17 21:01N 42°22' W 071°02'0 5.4
2017-Oct-17 21:00N 42°22' W 071°02'0 0.0
2017-Oct-17 20:31N 42°22' W 071°02'0 7.4
2017-Oct-17 20:30N 42°22' W 071°02'0 0.0
2017-Oct-17 20:00N 42°22' W 071°02'0 8.1
2017-Oct-17 20:00N 42°22' W 071°02'0 0.0
2017-Oct-17 19:30N 42°22' W 071°02'0 9.3
2017-Oct-17 19:30N 42°22' W 071°02'0 0.0
2017-Oct-17 19:00N 42°22' W 071°02'032.4
2017-Oct-17 19:00N 42°22' W 071°02'0 0.0
2017-Oct-17 18:30N 42°22' W 071°02'0 9.3
2017-Oct-17 18:30N 42°22' W 071°02'0 0.0
2017-Oct-17 18:01N 42°22' W 071°02'0 6.5
2017-Oct-17 18:00N 42°22' W 071°02'0 0.0
2017-Oct-17 17:30N 42°22' W 071°02'0 6.2
2017-Oct-17 17:30N 42°22' W 071°02'0 0.0
2017-Oct-17 17:00N 42°22' W 071°02'011.1
2017-Oct-17 17:00N 42°22' W 071°02'0 0.0
2017-Oct-17 16:30N 42°22' W 071°02'0 6.6
2017-Oct-17 16:30N 42°22' W 071°02'0 0.0
2017-Oct-17 16:00N 42°22' W 071°02'0 9.3
2017-Oct-17 16:00N 42°22' W 071°02'0 0.0
2017-Oct-17 15:30N 42°22' W 071°02'032.4
2017-Oct-17 15:30N 42°22' W 071°02'0 0.0
2017-Oct-17 15:01N 42°22' W 071°02'0 3.6
2017-Oct-17 15:00N 42°22' W 071°02'0 0.0
2017-Oct-17 14:31N 42°22' W 071°02'0 7.2
2017-Oct-17 14:30N 42°22' W 071°02'0 0.0
2017-Oct-17 14:00N 42°22' W 071°02'010.8
2017-Oct-17 14:00N 42°22' W 071°02'0 0.0
2017-Oct-17 13:30N 42°22' W 071°02'013.0
2017-Oct-17 13:30N 42°22' W 071°02'0 0.0
2017-Oct-17 13:01N 42°22' W 071°02'0 7.2
2017-Oct-17 13:00N 42°22' W 071°02'3 5.9
2017-Oct-17 12:30N 42°20' W 070°58'32132.1
2017-Oct-17 12:30N 42°22' W 071°02'713.7
2017-Oct-17 12:01N 42°23' W 070°53'7847.3
2017-Oct-17 12:00N 42°22' W 071°02'918.9
2017-Oct-17 11:31N 42°24' W 070°50'93343.9
2017-Oct-17 11:30N 42°22' W 071°02'611.9
2017-Oct-17 11:00N 42°22' W 070°54'61335.4
2017-Oct-17 11:00N 42°22' W 071°02'1 2.5
2017-Oct-17 10:31N 42°21' W 071°01'1500.3
2017-Oct-17 10:30N 42°22' W 071°02'4 8.6
2017-Oct-17 10:01N 42°21' W 070°56'42190.4
2017-Oct-17 10:00N 42°22' W 071°02'1020.3
2017-Oct-17 09:30N 42°24' W 070°48'107297.4
2017-Oct-17 09:30N 42°22' W 071°02'510.0
2017-Oct-17 09:01N 42°22' W 070°55'5895.5
2017-Oct-17 09:00N 42°22' W 071°02'0 0.0
2017-Oct-17 08:30N 42°22' W 071°02'064.8
2017-Oct-17 08:30N 42°22' W 071°02'0 0.0
2017-Oct-17 08:00N 42°22' W 071°02'0 4.8
2017-Oct-17 08:00N 42°22' W 071°02'0 0.0
2017-Oct-17 07:31N 42°22' W 071°02'0 6.2
2017-Oct-17 07:30N 42°22' W 071°02'0 0.0
2017-Oct-17 07:00N 42°22' W 071°02'046.1
2017-Oct-17 07:00N 42°22' W 071°02'0 0.0
2017-Oct-17 06:30N 42°22' W 071°02'0 3.3
2017-Oct-17 06:30N 42°22' W 071°02'0 0.0
2017-Oct-17 06:00N 42°22' W 071°02'0 4.6
2017-Oct-17 06:00N 42°22' W 071°02'0 0.0
2017-Oct-17 05:30N 42°22' W 071°02'0 5.8
2017-Oct-17 05:30N 42°22' W 071°02'0 0.0
2017-Oct-17 05:00N 42°22' W 071°02'010.8
2017-Oct-17 05:00N 42°22' W 071°02'0 0.0
2017-Oct-17 04:30N 42°22' W 071°02'032.4
2017-Oct-17 04:30N 42°22' W 071°02'0 0.0
2017-Oct-17 04:00N 42°22' W 071°02'0 3.0
2017-Oct-17 04:00N 42°22' W 071°02'0 0.0
2017-Oct-17 03:30N 42°22' W 071°02'0 3.4
2017-Oct-17 03:30N 42°22' W 071°02'0 0.0
2017-Oct-17 03:00N 42°22' W 071°02'032.4
2017-Oct-17 03:00N 42°22' W 071°02'0 0.0
2017-Oct-17 02:30N 42°22' W 071°02'032.4
2017-Oct-17 02:30N 42°22' W 071°02'0 0.0
2017-Oct-17 02:00N 42°22' W 071°02'046.1
2017-Oct-17 02:00N 42°22' W 071°02'0 0.0
2017-Oct-17 01:30N 42°22' W 071°02'0 5.0
2017-Oct-17 01:30N 42°22' W 071°02'5 9.3
2017-Oct-17 01:01N 42°21' W 070°56'52065.2
2017-Oct-17 01:00N 42°22' W 071°02'0 0.0
2017-Oct-17 00:31N 42°22' W 071°02'611.3
2017-Oct-17 00:00N 42°24' W 070°55'62930.6
2017-Oct-17 00:00N 42°22' W 071°02'0 0.0
2017-Oct-16 23:31N 42°22' W 071°02'6103.2
2017-Oct-16 23:27N 42°25' W 070°55'4 9.8
2017-Oct-16 23:00N 42°21' W 070°56'4859.0
2017-Oct-16 23:00N 42°22' W 071°02'2 3.0
2017-Oct-16 22:31N 42°21' W 071°01'2285.7
2017-Oct-16 22:30N 42°22' W 071°02'4 8.6
2017-Oct-16 22:01N 42°20' W 070°56'41691.9
2017-Oct-16 22:00N 42°22' W 071°02'0 0.4
2017-Oct-16 21:30N 42°22' W 071°02'0242.4
2017-Oct-16 21:30N 42°22' W 071°02'0 0.0
2017-Oct-16 21:00N 42°22' W 071°02'0 0.0
2017-Oct-16 21:00N 42°22' W 071°02'0 0.0
2017-Oct-16 20:31N 42°22' W 071°02'0 4.5
2017-Oct-16 20:30N 42°22' W 071°02'0 0.0
2017-Oct-16 20:00N 42°22' W 071°02'0 1.5
2017-Oct-16 20:00N 42°22' W 071°02'0 0.8
2017-Oct-16 19:30N 42°21' W 071°02'0348.2
2017-Oct-16 19:30N 42°22' W 071°02'0 0.0
2017-Oct-16 19:01N 42°22' W 071°02'0 9.3
2017-Oct-16 19:00N 42°22' W 071°02'0 0.0
2017-Oct-16 18:30N 42°22' W 071°02'0 5.0
2017-Oct-16 18:30N 42°22' W 071°02'0 0.0
2017-Oct-16 18:00N 42°22' W 071°02'0 9.3
2017-Oct-16 18:00N 42°22' W 071°02'0 0.0
2017-Oct-16 17:30N 42°22' W 071°02'021.6
2017-Oct-16 17:30N 42°22' W 071°02'0 0.0
2017-Oct-16 17:00N 42°22' W 071°02'064.8
2017-Oct-16 17:00N 42°22' W 071°02'0 0.0
2017-Oct-16 16:30N 42°22' W 071°02'014.4
2017-Oct-16 16:30N 42°22' W 071°02'0 0.0
2017-Oct-16 16:00N 42°22' W 071°02'021.6
2017-Oct-16 16:00N 42°22' W 071°02'1 2.3
2017-Oct-16 15:30N 42°21' W 071°02'14191.3
2017-Oct-16 15:30N 42°22' W 071°02'1 2.4
2017-Oct-16 15:00N 42°21' W 071°02'1707.8
2017-Oct-16 15:00N 42°22' W 071°02'0 0.0
2017-Oct-16 14:30N 42°22' W 071°02'1 2.8
2017-Oct-16 14:00N 42°21' W 071°01'714.5
2017-Oct-16 13:30N 42°23' W 070°52'81045.9
2017-Oct-16 13:30N 42°22' W 071°02'815.2
2017-Oct-16 13:01N 42°22' W 070°52'8575.0
2017-Oct-16 13:00N 42°22' W 071°02'0 0.0
2017-Oct-16 12:31N 42°22' W 071°02'621755.5
2017-Oct-16 12:31N 42°22' W 070°54'3 6.2
2017-Oct-16 12:01N 42°24' W 070°50'94031.8
2017-Oct-16 12:00N 42°22' W 071°02'4 9.0
2017-Oct-16 11:31N 42°21' W 070°56'41613.1
2017-Oct-16 11:30N 42°22' W 071°02'1 1.8
2017-Oct-16 11:00N 42°22' W 071°03'1454.9
2017-Oct-16 11:00N 42°22' W 071°02'0 0.0
2017-Oct-16 10:31N 42°22' W 071°02'0 0.3
2017-Oct-16 10:29N 42°22' W 071°02'0 0.7
2017-Oct-16 10:01N 42°22' W 071°02'045.8
2017-Oct-16 10:00N 42°22' W 071°02'510.7
2017-Oct-16 09:30N 42°22' W 070°55'519093.3
2017-Oct-16 09:30N 42°22' W 071°02'3 6.7
2017-Oct-16 09:00N 42°20' W 070°58'33024.6
2017-Oct-16 09:00N 42°22' W 071°02'2 4.4
2017-Oct-16 08:31N 42°20' W 070°60'2877.3
2017-Oct-16 08:30N 42°22' W 071°02'0 0.0
2017-Oct-16 08:01N 42°22' W 071°02'0 6.2
2017-Oct-16 08:00N 42°22' W 071°02'0 0.0
2017-Oct-16 07:31N 42°22' W 071°02'0 5.4
2017-Oct-16 07:30N 42°22' W 071°02'0 0.0
2017-Oct-16 07:01N 42°22' W 071°02'0 6.5
2017-Oct-16 07:00N 42°22' W 071°02'0 0.0
2017-Oct-16 06:30N 42°22' W 071°02'015.4
2017-Oct-16 06:30N 42°22' W 071°02'0 0.0
2017-Oct-16 06:00N 42°22' W 071°02'043.2
2017-Oct-16 06:00N 42°22' W 071°02'0 0.0
2017-Oct-16 05:30N 42°22' W 071°02'021.6
2017-Oct-16 05:30N 42°22' W 071°02'0 0.0
2017-Oct-16 05:01N 42°22' W 071°02'0 2.7
2017-Oct-16 05:00N 42°22' W 071°02'0 0.0
2017-Oct-16 04:31N 42°22' W 071°02'0 2.2
2017-Oct-16 04:30N 42°22' W 071°02'0 0.0
2017-Oct-16 04:00N 42°22' W 071°02'0 6.2
2017-Oct-16 04:00N 42°22' W 071°02'0 0.0
2017-Oct-16 03:31N 42°22' W 071°02'0 1.2
2017-Oct-16 03:30N 42°22' W 071°02'0 0.0
2017-Oct-16 03:00N 42°22' W 071°02'010.8
2017-Oct-16 03:00N 42°22' W 071°02'0 0.0
2017-Oct-16 02:30N 42°22' W 071°02'0 3.3
2017-Oct-16 02:30N 42°22' W 071°02'0 0.0
2017-Oct-16 02:01N 42°22' W 071°02'0 5.4
2017-Oct-16 02:00N 42°22' W 071°02'0 0.0
2017-Oct-16 01:30N 42°22' W 071°02'0 6.6
2017-Oct-16 01:30N 42°22' W 071°02'0 0.0
2017-Oct-16 01:00N 42°22' W 071°02'0 7.2
2017-Oct-16 01:00N 42°22' W 071°02'0 0.0
2017-Oct-16 00:31N 42°22' W 071°02'0 2.1
2017-Oct-16 00:30N 42°22' W 071°02'0 0.0
2017-Oct-16 00:01N 42°22' W 071°02'0 2.6
2017-Oct-16 00:00N 42°22' W 071°02'0 0.0
2017-Oct-15 23:30N 42°22' W 071°02'0 7.2
2017-Oct-15 23:30N 42°22' W 071°02'2 3.1
2017-Oct-15 23:00N 42°21' W 071°00'21886.8
2017-Oct-15 23:00N 42°22' W 071°02'0 0.0
2017-Oct-15 22:31N 42°22' W 071°02'713.8
2017-Oct-15 22:00N 42°23' W 070°53'7713.9
2017-Oct-15 22:00N 42°22' W 071°02'1 1.1
2017-Oct-15 21:31N 42°21' W 071°02'1115.5
2017-Oct-15 21:30N 42°22' W 071°02'611.5
2017-Oct-15 21:00N 42°22' W 070°54'64123.5
2017-Oct-15 21:00N 42°22' W 071°02'0 0.0
2017-Oct-15 20:30N 42°22' W 071°02'0 0.0
2017-Oct-15 20:00N 42°22' W 071°02'1 2.5
2017-Oct-15 19:30N 42°21' W 071°01'1237.0
2017-Oct-15 19:30N 42°22' W 071°02'0 0.0
2017-Oct-15 19:00N 42°22' W 071°02'013.4
2017-Oct-15 19:00N 42°22' W 071°02'3 6.2
2017-Oct-15 18:30N 42°21' W 070°58'33731.9
2017-Oct-15 18:30N 42°22' W 071°02'0 0.0
2017-Oct-15 18:00N 42°22' W 071°02'0 0.8
2017-Oct-15 18:00N 42°22' W 071°02'0 0.0
2017-Oct-15 17:31N 42°22' W 071°02'35591.7
2017-Oct-15 17:30N 42°20' W 070°58'3 6.2
2017-Oct-15 17:00N 42°22' W 071°02'517190.9
2017-Oct-15 17:00N 42°22' W 070°55'5 9.3
2017-Oct-15 16:30N 42°21' W 071°02'1375.4
2017-Oct-15 16:30N 42°22' W 071°02'1 2.7
2017-Oct-15 16:00N 42°23' W 071°03'1203.6
2017-Oct-15 16:00N 42°22' W 071°02'1 1.0
2017-Oct-15 15:30N 42°22' W 071°03'172.4
2017-Oct-15 15:30N 42°22' W 071°02'0 0.0
2017-Oct-15 15:00N 42°22' W 071°02'013.4
2017-Oct-15 15:00N 42°22' W 071°02'0 0.0
2017-Oct-15 14:00N 42°22' W 071°02'39786.8
2017-Oct-15 14:00N 42°20' W 070°59'3 5.4
2017-Oct-15 13:30N 42°22' W 071°02'0 3.3
2017-Oct-15 13:30N 42°22' W 071°02'0 0.0
2017-Oct-15 13:00N 42°22' W 071°02'064.8
2017-Oct-15 13:00N 42°22' W 071°02'0 0.0
2017-Oct-15 12:30N 42°22' W 071°02'0 5.9
2017-Oct-15 12:30N 42°22' W 071°02'0 0.0
2017-Oct-15 12:00N 42°22' W 071°02'014.4
2017-Oct-15 12:00N 42°22' W 071°02'0 0.0
2017-Oct-15 11:30N 42°22' W 071°02'014.4
2017-Oct-15 11:30N 42°22' W 071°02'1 3.0
2017-Oct-15 11:00N 42°23' W 071°03'12698.5
2017-Oct-15 11:00N 42°22' W 071°02'0 0.0
2017-Oct-15 10:30N 42°22' W 071°02'0 0.0
2017-Oct-15 10:01N 42°22' W 071°02'726447.8
2017-Oct-15 10:01N 42°23' W 070°52'3 5.6
2017-Oct-15 09:31N 42°24' W 070°49'104013.2
2017-Oct-15 09:30N 42°22' W 071°02'918.1
2017-Oct-15 09:00N 42°25' W 070°50'94060.2
2017-Oct-15 09:00N 42°22' W 071°02'917.5
2017-Oct-15 08:30N 42°25' W 070°51'94478.9
2017-Oct-15 08:30N 42°22' W 071°02'5 9.1
2017-Oct-15 08:01N 42°21' W 070°56'52032.9
2017-Oct-15 08:00N 42°22' W 071°02'0 0.0
2017-Oct-15 07:30N 42°22' W 071°02'016.2
2017-Oct-15 07:30N 42°22' W 071°02'0 0.0
2017-Oct-15 07:00N 42°22' W 071°02'0 5.9
2017-Oct-15 07:00N 42°22' W 071°02'0 0.0
2017-Oct-15 06:30N 42°22' W 071°02'0 0.2
2017-Oct-15 06:26N 42°22' W 071°02'0 0.0
2017-Oct-15 06:00N 42°22' W 071°02'0 3.1
2017-Oct-15 06:00N 42°22' W 071°02'0 0.0
2017-Oct-15 05:30N 42°22' W 071°02'0 1.0
2017-Oct-15 05:29N 42°22' W 071°02'0 0.0
2017-Oct-15 05:00N 42°22' W 071°02'0 6.2
2017-Oct-15 05:00N 42°22' W 071°02'0 0.0
2017-Oct-15 04:30N 42°22' W 071°02'0 5.4
2017-Oct-15 04:30N 42°22' W 071°02'0 0.0
2017-Oct-15 04:00N 42°22' W 071°02'0 8.1
2017-Oct-15 04:00N 42°22' W 071°02'0 0.0
2017-Oct-15 03:30N 42°22' W 071°02'0 2.5
2017-Oct-15 03:30N 42°22' W 071°02'0 0.0
2017-Oct-15 03:00N 42°22' W 071°02'010.8
2017-Oct-15 03:00N 42°22' W 071°02'0 0.0
2017-Oct-15 02:30N 42°22' W 071°02'0 7.2
2017-Oct-15 02:30N 42°22' W 071°02'0 0.0
2017-Oct-15 02:00N 42°22' W 071°02'0 3.6
2017-Oct-15 02:00N 42°22' W 071°02'0 0.0
2017-Oct-15 01:30N 42°22' W 071°02'010.8
2017-Oct-15 01:30N 42°22' W 071°02'2 3.2
2017-Oct-15 01:00N 42°21' W 071°00'21400.6
2017-Oct-15 01:00N 42°22' W 071°02'5 9.2
2017-Oct-15 00:30N 42°21' W 070°56'58308.0
2017-Oct-15 00:30N 42°22' W 071°02'918.5
2017-Oct-15 00:00N 42°24' W 070°50'93695.5
2017-Oct-15 00:00N 42°22' W 071°02'917.6
2017-Oct-14 23:30N 42°24' W 070°50'95238.4
2017-Oct-14 23:30N 42°22' W 071°02'1 3.0
2017-Oct-14 23:01N 42°21' W 071°01'2193.4
2017-Oct-14 23:00N 42°22' W 071°02'611.9
2017-Oct-14 22:30N 42°23' W 070°54'64223.3
2017-Oct-14 22:30N 42°22' W 071°02'3 5.4
2017-Oct-14 22:01N 42°20' W 070°59'3534.4
2017-Oct-14 22:00N 42°22' W 071°02'0 0.0
2017-Oct-14 21:30N 42°22' W 071°02'0 9.3
2017-Oct-14 21:30N 42°22' W 071°02'0 0.0
2017-Oct-14 21:01N 42°22' W 071°02'0 4.3
2017-Oct-14 21:00N 42°22' W 071°02'0 0.0
2017-Oct-14 20:31N 42°22' W 071°02'0 5.9
2017-Oct-14 20:30N 42°22' W 071°02'0 0.0
2017-Oct-14 20:00N 42°22' W 071°02'0 4.1
2017-Oct-14 20:00N 42°22' W 071°02'0 0.0
2017-Oct-14 19:31N 42°22' W 071°02'0 6.2
2017-Oct-14 19:30N 42°22' W 071°02'0 0.0
2017-Oct-14 19:00N 42°22' W 071°02'0 2.3
2017-Oct-14 19:00N 42°22' W 071°02'0 0.0
2017-Oct-14 18:31N 42°22' W 071°02'043.2
2017-Oct-14 18:31N 42°22' W 071°02'0 0.0
2017-Oct-14 18:01N 42°22' W 071°02'0 9.3
2017-Oct-14 18:00N 42°22' W 071°02'3 5.9
2017-Oct-14 17:31N 42°20' W 070°58'31313.4
2017-Oct-14 17:30N 42°22' W 071°02'713.7
2017-Oct-14 17:00N 42°23' W 070°53'71638.8
2017-Oct-14 17:00N 42°22' W 071°02'511.0
2017-Oct-14 16:31N 42°22' W 070°55'52456.8
2017-Oct-14 16:30N 42°22' W 071°02'0 0.0
2017-Oct-14 16:00N 42°22' W 071°02'021.6
2017-Oct-14 16:00N 42°22' W 071°02'0 0.0
2017-Oct-14 15:31N 42°22' W 071°02'0 7.2
2017-Oct-14 15:30N 42°22' W 071°02'0 0.0
2017-Oct-14 15:01N 42°22' W 071°02'0 4.8
2017-Oct-14 15:00N 42°22' W 071°02'0 0.0
2017-Oct-14 14:30N 42°22' W 071°02'032.4
2017-Oct-14 14:30N 42°22' W 071°02'0 0.0
2017-Oct-14 14:01N 42°22' W 071°02'0 4.8
2017-Oct-14 14:00N 42°22' W 071°02'0 0.0
2017-Oct-14 13:30N 42°22' W 071°02'021.6
2017-Oct-14 13:30N 42°22' W 071°02'0 0.0
2017-Oct-14 13:00N 42°22' W 071°02'043.2
2017-Oct-14 13:00N 42°22' W 071°02'0 0.0
2017-Oct-14 12:30N 42°22' W 071°02'0 4.3
2017-Oct-14 12:30N 42°22' W 071°02'0 0.0
2017-Oct-14 12:01N 42°22' W 071°02'0 2.3
2017-Oct-14 12:00N 42°22' W 071°02'0 0.0
2017-Oct-14 11:30N 42°22' W 071°02'064.8
2017-Oct-14 11:30N 42°22' W 071°02'1 2.9
2017-Oct-14 11:01N 42°21' W 071°01'1641.0
2017-Oct-14 11:00N 42°22' W 071°02'4 8.7
2017-Oct-14 10:30N 42°20' W 070°56'42593.1
2017-Oct-14 10:30N 42°22' W 071°02'918.0
2017-Oct-14 10:00N 42°23' W 070°50'932451.3
2017-Oct-14 10:00N 42°22' W 071°02'0 0.0
2017-Oct-14 09:31N 42°22' W 071°02'612.8
2017-Oct-14 09:01N 42°22' W 070°53'62305.3
2017-Oct-14 09:00N 42°22' W 071°02'1 2.4
2017-Oct-14 08:31N 42°21' W 071°02'1472.8
2017-Oct-14 08:30N 42°22' W 071°02'0 0.0
2017-Oct-14 08:00N 42°22' W 071°02'0 5.8
2017-Oct-14 08:00N 42°22' W 071°02'0 0.0
2017-Oct-14 07:30N 42°22' W 071°02'021.6
2017-Oct-14 07:30N 42°22' W 071°02'0 0.0
2017-Oct-14 07:00N 42°22' W 071°02'023.0
2017-Oct-14 07:00N 42°22' W 071°02'0 0.0
2017-Oct-14 06:30N 42°22' W 071°02'015.4
2017-Oct-14 06:30N 42°22' W 071°02'0 0.0
2017-Oct-14 06:00N 42°22' W 071°02'021.6
2017-Oct-14 06:00N 42°22' W 071°02'0 0.0
2017-Oct-14 05:30N 42°22' W 071°02'033.4
2017-Oct-14 05:30N 42°22' W 071°02'0 0.0
2017-Oct-14 05:00N 42°22' W 071°02'014.4
2017-Oct-14 05:00N 42°22' W 071°02'0 0.0
2017-Oct-14 04:30N 42°22' W 071°02'021.6
2017-Oct-14 04:30N 42°22' W 071°02'0 0.0
2017-Oct-14 04:00N 42°22' W 071°02'021.6
2017-Oct-14 04:00N 42°22' W 071°02'0 0.0
2017-Oct-14 03:30N 42°22' W 071°02'011.5
2017-Oct-14 03:30N 42°22' W 071°02'0 0.0
2017-Oct-14 03:00N 42°22' W 071°02'010.8
2017-Oct-14 03:00N 42°22' W 071°02'0 0.0
2017-Oct-14 02:31N 42°22' W 071°02'0 3.9
2017-Oct-14 02:30N 42°22' W 071°02'1 2.4
2017-Oct-14 02:00N 42°21' W 071°02'1248.1
2017-Oct-14 02:00N 42°22' W 071°02'0 0.0
2017-Oct-14 01:28N 42°22' W 071°02'5136.5
2017-Oct-14 01:26N 42°22' W 070°55'510.8
2017-Oct-14 00:59N 42°21' W 071°01'1 5.3
2017-Oct-14 00:50N 42°22' W 071°02'0 0.0
2017-Oct-14 00:27N 42°22' W 071°02'0 0.6
2017-Oct-14 00:26N 42°22' W 071°02'0 0.0
2017-Oct-13 23:58N 42°22' W 071°02'0 1.0
2017-Oct-13 23:57N 42°22' W 071°02'0 0.0
2017-Oct-13 23:20N 42°22' W 071°02'0 7.2
2017-Oct-13 23:20N 42°22' W 071°02'0 0.0
2017-Oct-13 23:01N 42°22' W 071°02'0 4.1
2017-Oct-13 23:00N 42°22' W 071°02'0 0.0
2017-Oct-13 22:30N 42°22' W 071°02'010.8
2017-Oct-13 22:30N 42°22' W 071°02'0 0.0
2017-Oct-13 22:00N 42°22' W 071°02'032.4
2017-Oct-13 22:00N 42°22' W 071°02'0 0.0
2017-Oct-13 21:30N 42°22' W 071°02'0 5.1
2017-Oct-13 21:30N 42°22' W 071°02'0 0.0
2017-Oct-13 21:00N 42°22' W 071°02'0 2.7
2017-Oct-13 21:00N 42°22' W 071°02'0 0.0
2017-Oct-13 20:30N 42°22' W 071°02'021.6
2017-Oct-13 20:30N 42°22' W 071°02'0 0.0
2017-Oct-13 20:00N 42°22' W 071°02'0 6.2
2017-Oct-13 20:00N 42°22' W 071°02'1 2.7
2017-Oct-13 19:30N 42°23' W 071°03'12425.0
2017-Oct-13 19:30N 42°22' W 071°02'2 4.7
2017-Oct-13 19:00N 42°20' W 070°59'21672.2
2017-Oct-13 19:00N 42°22' W 071°02'5 9.6
2017-Oct-13 18:30N 42°22' W 070°55'58670.7
2017-Oct-13 18:30N 42°22' W 071°02'1 2.1
2017-Oct-13 18:00N 42°21' W 071°01'1525.2
2017-Oct-13 18:00N 42°22' W 071°02'0 0.0
2017-Oct-13 17:30N 42°22' W 071°02'014.4
2017-Oct-13 17:30N 42°22' W 071°02'0 0.0
2017-Oct-13 17:00N 42°22' W 071°02'0 7.2
2017-Oct-13 17:00N 42°22' W 071°02'0 0.0
2017-Oct-13 16:30N 42°22' W 071°02'0 5.0
2017-Oct-13 16:30N 42°22' W 071°02'0 0.0
2017-Oct-13 16:00N 42°22' W 071°02'021.6
2017-Oct-13 16:00N 42°22' W 071°02'0 0.0
2017-Oct-13 15:30N 42°22' W 071°02'021.6
2017-Oct-13 15:30N 42°22' W 071°02'0 0.0
2017-Oct-13 15:00N 42°22' W 071°02'021.6
2017-Oct-13 15:00N 42°22' W 071°02'0 0.0
2017-Oct-13 14:30N 42°22' W 071°02'0 5.4
2017-Oct-13 14:30N 42°22' W 071°02'0 0.0
2017-Oct-13 14:00N 42°22' W 071°02'0 8.6
2017-Oct-13 14:00N 42°22' W 071°02'0 0.0
2017-Oct-13 13:30N 42°22' W 071°02'0 3.3
2017-Oct-13 13:30N 42°22' W 071°02'0 0.0
2017-Oct-13 13:00N 42°22' W 071°02'0 2.8
2017-Oct-13 13:00N 42°22' W 071°02'0 0.0
2017-Oct-13 12:31N 42°22' W 071°02'013.3
2017-Oct-13 12:30N 42°22' W 071°02'0 0.0
2017-Oct-13 12:00N 42°22' W 071°02'0 2.8
2017-Oct-13 12:00N 42°22' W 071°02'0 0.0
2017-Oct-13 11:30N 42°22' W 071°02'021.6
2017-Oct-13 11:30N 42°22' W 071°02'0 0.0
2017-Oct-13 11:01N 42°22' W 071°02'0 0.0
2017-Oct-13 10:30N 42°22' W 071°02'021.6
2017-Oct-13 10:30N 42°22' W 071°02'0 0.0
2017-Oct-13 10:00N 42°22' W 071°02'0 7.2
2017-Oct-13 10:00N 42°22' W 071°02'510.8
2017-Oct-13 09:30N 42°22' W 070°55'56442.1
2017-Oct-13 09:30N 42°22' W 071°02'815.5
2017-Oct-13 09:00N 42°23' W 070°52'85549.8
2017-Oct-13 09:00N 42°22' W 071°02'3 5.7
2017-Oct-13 08:30N 42°20' W 070°59'31699.3
2017-Oct-13 08:30N 42°22' W 071°02'0 0.0
2017-Oct-13 08:00N 42°22' W 071°02'0 7.7
2017-Oct-13 08:00N 42°22' W 071°02'0 0.0
2017-Oct-13 07:30N 42°22' W 071°02'0 4.1
2017-Oct-13 07:30N 42°22' W 071°02'0 0.0
2017-Oct-13 07:01N 42°22' W 071°02'021.6
2017-Oct-13 07:00N 42°22' W 071°02'0 0.0
2017-Oct-13 06:30N 42°22' W 071°02'013.3
2017-Oct-13 06:30N 42°22' W 071°02'0 0.0
2017-Oct-13 06:00N 42°22' W 071°02'0 8.6
2017-Oct-13 06:00N 42°22' W 071°02'0 0.0
2017-Oct-13 05:30N 42°22' W 071°02'010.8
2017-Oct-13 05:30N 42°22' W 071°02'0 0.0
2017-Oct-13 05:00N 42°22' W 071°02'013.0
2017-Oct-13 05:00N 42°22' W 071°02'0 0.0
2017-Oct-13 04:30N 42°22' W 071°02'0 8.3
2017-Oct-13 04:30N 42°22' W 071°02'0 0.0
2017-Oct-13 04:00N 42°22' W 071°02'010.8
2017-Oct-13 04:00N 42°22' W 071°02'0 0.0
2017-Oct-13 03:30N 42°22' W 071°02'013.0
2017-Oct-13 03:30N 42°22' W 071°02'0 0.0
2017-Oct-13 03:00N 42°22' W 071°02'0 6.6
2017-Oct-13 03:00N 42°22' W 071°02'0 0.0
2017-Oct-13 02:30N 42°22' W 071°02'013.0
2017-Oct-13 02:30N 42°22' W 071°02'0 0.0
2017-Oct-13 02:00N 42°22' W 071°02'0 7.2
2017-Oct-13 02:00N 42°22' W 071°02'0 0.0
2017-Oct-13 01:31N 42°22' W 071°02'014.4
2017-Oct-13 01:30N 42°22' W 071°02'0 0.0
2017-Oct-13 01:00N 42°22' W 071°02'013.0
2017-Oct-13 01:00N 42°22' W 071°02'0 0.0
2017-Oct-13 00:31N 42°22' W 071°02'021.6
2017-Oct-13 00:30N 42°22' W 071°02'0 0.0
2017-Oct-13 00:00N 42°22' W 071°02'016.2
2017-Oct-13 00:00N 42°22' W 071°02'1 2.6
2017-Oct-12 23:30N 42°21' W 071°01'1274.4
2017-Oct-12 23:30N 42°22' W 071°02'713.2
2017-Oct-12 23:00N 42°23' W 070°53'71304.9
2017-Oct-12 23:00N 42°22' W 071°02'4 8.9
2017-Oct-12 22:31N 42°21' W 070°56'41980.8
2017-Oct-12 22:30N 42°22' W 071°02'5 9.8
2017-Oct-12 22:00N 42°22' W 070°55'51032.6
2017-Oct-12 22:00N 42°22' W 071°02'714.3
2017-Oct-12 21:31N 42°23' W 070°53'71340.8
2017-Oct-12 21:30N 42°22' W 071°02'4 8.7
2017-Oct-12 21:00N 42°21' W 070°56'41291.6
2017-Oct-12 21:00N 42°22' W 071°02'1 2.5
2017-Oct-12 20:30N 42°21' W 071°01'1276.0
2017-Oct-12 20:30N 42°22' W 071°02'0 0.0
2017-Oct-12 20:00N 42°22' W 071°02'014.4
2017-Oct-12 20:00N 42°22' W 071°02'0 0.0
2017-Oct-12 19:30N 42°22' W 071°02'010.8
2017-Oct-12 19:30N 42°22' W 071°02'0 0.0
2017-Oct-12 19:01N 42°22' W 071°02'016.2
2017-Oct-12 19:00N 42°22' W 071°02'0 0.0
2017-Oct-12 18:30N 42°22' W 071°02'0 9.3
2017-Oct-12 18:30N 42°22' W 071°02'0 0.0
2017-Oct-12 18:00N 42°22' W 071°02'0 4.3
2017-Oct-12 18:00N 42°22' W 071°02'0 0.0
2017-Oct-12 17:30N 42°22' W 071°02'013.0
2017-Oct-12 17:30N 42°22' W 071°02'0 0.0
2017-Oct-12 17:00N 42°22' W 071°02'0 6.2
2017-Oct-12 17:00N 42°22' W 071°02'0 0.0
2017-Oct-12 16:30N 42°22' W 071°02'0 9.2
2017-Oct-12 16:30N 42°22' W 071°02'0 0.0
2017-Oct-12 16:00N 42°22' W 071°02'010.8
2017-Oct-12 16:00N 42°22' W 071°02'0 0.0
2017-Oct-12 15:30N 42°22' W 071°02'0 4.3
2017-Oct-12 15:30N 42°22' W 071°02'0 0.0
2017-Oct-12 15:00N 42°22' W 071°02'0 7.2
2017-Oct-12 15:00N 42°22' W 071°02'0 0.0
2017-Oct-12 14:30N 42°22' W 071°02'0 0.8
2017-Oct-12 14:29N 42°22' W 071°02'0 0.0
2017-Oct-12 14:00N 42°22' W 071°02'0 8.6
2017-Oct-12 14:00N 42°22' W 071°02'0 0.0
2017-Oct-12 13:30N 42°22' W 071°02'010.8
2017-Oct-12 13:30N 42°22' W 071°02'0 0.0
2017-Oct-12 13:00N 42°22' W 071°02'0 9.3
2017-Oct-12 13:00N 42°22' W 071°02'0 0.0
2017-Oct-12 12:30N 42°22' W 071°02'0 4.3
2017-Oct-12 12:30N 42°22' W 071°02'0 0.0
2017-Oct-12 12:01N 42°22' W 071°02'016.2
2017-Oct-12 12:00N 42°22' W 071°02'0 0.0
2017-Oct-12 11:31N 42°22' W 071°02'12355.5
2017-Oct-12 11:31N 42°23' W 071°03'1 2.3
2017-Oct-12 11:00N 42°22' W 071°02'092.3
2017-Oct-12 11:00N 42°22' W 071°02'4 8.8
2017-Oct-12 10:30N 42°21' W 070°56'43158.9
2017-Oct-12 10:30N 42°22' W 071°02'917.5
2017-Oct-12 10:00N 42°24' W 070°50'9898.7
2017-Oct-12 10:00N 42°22' W 071°02'815.9
2017-Oct-12 09:30N 42°23' W 070°52'81119.1
2017-Oct-12 09:30N 42°22' W 071°02'4 8.8
2017-Oct-12 09:00N 42°21' W 070°56'41121.8
2017-Oct-12 09:00N 42°22' W 071°02'1 1.7
2017-Oct-12 08:30N 42°21' W 071°01'1123.9
2017-Oct-12 08:30N 42°22' W 071°02'713.6
2017-Oct-12 08:01N 42°23' W 070°53'72680.2
2017-Oct-12 08:00N 42°22' W 071°02'5 9.9
2017-Oct-12 07:30N 42°22' W 070°55'51268.8
2017-Oct-12 07:30N 42°22' W 071°02'815.7
2017-Oct-12 07:00N 42°23' W 070°51'814071.7
2017-Oct-12 07:00N 42°22' W 071°02'0 0.0
2017-Oct-12 06:31N 42°22' W 071°02'41964.1
2017-Oct-12 06:30N 42°21' W 070°56'4 8.7
2017-Oct-12 06:00N 42°22' W 071°02'0 9.0
2017-Oct-12 06:00N 42°22' W 071°02'2 4.2
2017-Oct-12 05:30N 42°23' W 071°04'27543.4
2017-Oct-12 05:30N 42°22' W 071°02'0 0.0
2017-Oct-12 05:00N 42°22' W 071°02'064.8
2017-Oct-12 05:00N 42°22' W 071°02'0 0.0
2017-Oct-12 04:30N 42°22' W 071°02'064.8
2017-Oct-12 04:30N 42°22' W 071°02'0 0.0
2017-Oct-12 04:00N 42°22' W 071°02'0 0.0
2017-Oct-12 03:30N 42°22' W 071°02'0 0.0
2017-Oct-12 03:00N 42°22' W 071°02'021.6
2017-Oct-12 03:00N 42°22' W 071°02'0 0.0
2017-Oct-12 02:30N 42°22' W 071°02'064.8
2017-Oct-12 02:30N 42°22' W 071°02'0 0.0
2017-Oct-12 02:00N 42°22' W 071°02'021.6
2017-Oct-12 02:00N 42°22' W 071°02'0 0.0
2017-Oct-12 01:30N 42°22' W 071°02'046.1
2017-Oct-12 01:30N 42°22' W 071°02'0 0.0
2017-Oct-12 01:01N 42°22' W 071°02'0 0.0
2017-Oct-12 00:30N 42°22' W 071°02'2762.6
2017-Oct-12 00:30N 42°20' W 070°60'2 4.7
2017-Oct-12 00:00N 42°22' W 071°02'0 0.0
2017-Oct-11 23:31N 42°22' W 071°02'0 1.4
2017-Oct-11 23:30N 42°22' W 071°02'4 8.8
2017-Oct-11 23:00N 42°18' W 070°58'42234.0
2017-Oct-11 23:00N 42°22' W 071°02'0 0.0
2017-Oct-11 22:31N 42°22' W 071°02'89239.7
2017-Oct-11 22:30N 42°15' W 070°58'815.4
2017-Oct-11 22:01N 42°22' W 071°02'713408.5
2017-Oct-11 22:00N 42°19' W 070°52'714.9
2017-Oct-11 21:31N 42°22' W 071°02'66864.7
2017-Oct-11 21:30N 42°19' W 070°55'5 9.0
2017-Oct-11 21:00N 42°21' W 071°01'1952.8
2017-Oct-11 21:00N 42°22' W 071°02'0 0.0
2017-Oct-11 20:30N 42°22' W 071°02'0 1.8
2017-Oct-11 20:30N 42°22' W 071°02'0 0.0
2017-Oct-11 20:00N 42°22' W 071°02'0 1.4
2017-Oct-11 20:00N 42°22' W 071°02'0 0.0
2017-Oct-11 19:31N 42°22' W 071°02'0 0.0
2017-Oct-11 19:30N 42°22' W 071°02'612.1
2017-Oct-11 19:00N 42°22' W 070°54'61672.2
2017-Oct-11 19:00N 42°22' W 071°02'3 7.0
2017-Oct-11 18:30N 42°20' W 070°58'31135.9
2017-Oct-11 18:30N 42°22' W 071°02'1 2.4
2017-Oct-11 18:00N 42°21' W 071°01'1324.1
2017-Oct-11 18:00N 42°22' W 071°02'1 2.5
2017-Oct-11 17:30N 42°21' W 071°02'1196.9
2017-Oct-11 17:30N 42°22' W 071°02'0 0.0
2017-Oct-11 17:01N 42°22' W 071°02'1594.7
2017-Oct-11 17:00N 42°23' W 071°03'3 0.2
2017-Oct-11 00:00N 42°21' W 071°00'21452.8
2017-Oct-11 00:00N 42°22' W 071°02'510.6
2017-Oct-10 23:30N 42°22' W 070°55'5789.9
2017-Oct-10 23:30N 42°22' W 071°02'0 0.0
2017-Oct-10 23:01N 42°22' W 071°02'65461.2
2017-Oct-10 23:00N 42°23' W 070°54'1 1.2
2017-Oct-10 22:30N 42°22' W 070°54'63996.7
2017-Oct-10 22:30N 42°22' W 071°02'919.0
2017-Oct-10 22:00N 42°24' W 070°49'94880.6
2017-Oct-10 22:00N 42°22' W 071°02'917.9
2017-Oct-10 21:30N 42°23' W 070°50'94590.3
2017-Oct-10 21:30N 42°22' W 071°02'3 5.5
2017-Oct-10 21:00N 42°20' W 070°59'33301.0
2017-Oct-10 21:00N 42°22' W 071°02'0 0.6
2017-Oct-10 20:30N 42°21' W 071°02'0163.8
2017-Oct-10 20:30N 42°22' W 071°02'0 0.0
2017-Oct-10 20:01N 42°22' W 071°02'0 0.7
2017-Oct-10 20:00N 42°22' W 071°02'611.4
2017-Oct-10 19:30N 42°22' W 070°54'62866.2
2017-Oct-10 19:30N 42°22' W 071°02'3 5.2
2017-Oct-10 19:00N 42°20' W 070°59'3447.2
2017-Oct-10 19:00N 42°22' W 071°02'0 0.0
2017-Oct-10 18:30N 42°22' W 071°02'0 0.6
2017-Oct-10 18:30N 42°22' W 071°02'0 0.0
2017-Oct-10 18:00N 42°22' W 071°02'0 1.0
2017-Oct-10 18:00N 42°22' W 071°02'0 0.0
2017-Oct-10 17:30N 42°22' W 071°02'414120.0
2017-Oct-10 17:30N 42°20' W 070°57'0 0.9
2017-Oct-10 17:00N 42°21' W 070°56'4203.6
2017-Oct-10 16:59N 42°22' W 071°02'1 2.3
2017-Oct-10 16:30N 42°21' W 071°01'1169.1
2017-Oct-10 16:30N 42°22' W 071°02'0 0.0
2017-Oct-10 16:00N 42°22' W 071°02'0 5.4
2017-Oct-10 16:00N 42°22' W 071°02'0 0.0
2017-Oct-10 15:30N 42°22' W 071°02'0264.1
2017-Oct-10 15:30N 42°22' W 071°02'1 1.8
2017-Oct-10 15:00N 42°22' W 071°03'1921.0
2017-Oct-10 15:00N 42°22' W 071°02'0 0.4
2017-Oct-10 14:01N 42°22' W 071°02'051.1
2017-Oct-10 14:00N 42°22' W 071°02'0 0.0
2017-Oct-10 13:31N 42°22' W 071°02'0 1.5
2017-Oct-10 13:30N 42°22' W 071°02'0 0.0
2017-Oct-10 13:00N 42°22' W 071°02'026.9
2017-Oct-10 13:00N 42°22' W 071°02'1 2.7
2017-Oct-10 12:30N 42°23' W 071°03'1692.8
2017-Oct-10 12:30N 42°22' W 071°02'  

Dump ship's entire track history